<?xml version='1.0' encoding='UTF-8'?><gpx version="1.1" creator="JPX - https://github.com/jenetics/jpx" xmlns="http://www.topografix.com/GPX/1/1"><trk><trkseg><trkpt lat="43.7782043" lon="11.2000018"><ele>40.0</ele><time>2026-04-09T16:12:00.976Z</time></trkpt><trkpt lat="43.7782652" lon="11.2002659"><ele>40.0</ele><time>2026-04-09T16:12:01.976Z</time></trkpt><trkpt lat="43.7782994" lon="11.2004588"><ele>40.0</ele><time>2026-04-09T16:12:03.916Z</time></trkpt><trkpt lat="43.7782626" lon="11.2005618"><ele>40.0</ele><time>2026-04-09T16:12:33.916Z</time></trkpt><trkpt lat="43.7783219" lon="11.2006139"><ele>40.0</ele><time>2026-04-09T16:12:39.915Z</time></trkpt><trkpt lat="43.778385" lon="11.20065"><ele>40.0</ele><time>2026-04-09T16:12:43.916Z</time></trkpt><trkpt lat="43.7783967" lon="11.2007417"><ele>40.0</ele><time>2026-04-09T16:12:48.915Z</time></trkpt><trkpt lat="43.778475" lon="11.20074"><ele>40.0</ele><time>2026-04-09T16:12:54.915Z</time></trkpt><trkpt lat="43.7785517" lon="11.2006833"><ele>40.0</ele><time>2026-04-09T16:12:58.915Z</time></trkpt><trkpt lat="43.77862" lon="11.2007017"><ele>40.0</ele><time>2026-04-09T16:13:00.916Z</time></trkpt><trkpt lat="43.7786933" lon="11.2007567"><ele>40.0</ele><time>2026-04-09T16:13:02.915Z</time></trkpt><trkpt lat="43.77876" lon="11.2008267"><ele>40.0</ele><time>2026-04-09T16:13:04.916Z</time></trkpt><trkpt lat="43.7788217" lon="11.2008867"><ele>40.0</ele><time>2026-04-09T16:13:06.916Z</time></trkpt><trkpt lat="43.778885" lon="11.2009467"><ele>40.0</ele><time>2026-04-09T16:13:08.915Z</time></trkpt><trkpt lat="43.77894" lon="11.201005"><ele>40.0</ele><time>2026-04-09T16:13:10.916Z</time></trkpt><trkpt lat="43.778995" lon="11.2010483"><ele>40.0</ele><time>2026-04-09T16:13:12.915Z</time></trkpt><trkpt lat="43.7790867" lon="11.201115"><ele>40.0</ele><time>2026-04-09T16:13:15.916Z</time></trkpt><trkpt lat="43.7791483" lon="11.2011567"><ele>40.0</ele><time>2026-04-09T16:13:18.915Z</time></trkpt><trkpt lat="43.7792367" lon="11.2012083"><ele>40.0</ele><time>2026-04-09T16:13:21.915Z</time></trkpt><trkpt lat="43.7793017" lon="11.201245"><ele>40.0</ele><time>2026-04-09T16:13:23.915Z</time></trkpt><trkpt lat="43.7793733" lon="11.2012883"><ele>40.0</ele><time>2026-04-09T16:13:26.916Z</time></trkpt><trkpt lat="43.7794617" lon="11.20134"><ele>40.0</ele><time>2026-04-09T16:13:29.916Z</time></trkpt><trkpt lat="43.7795433" lon="11.2013867"><ele>40.16666666666667</ele><time>2026-04-09T16:13:32.915Z</time></trkpt><trkpt lat="43.7796183" lon="11.2014317"><ele>40.333333333333336</ele><time>2026-04-09T16:13:35.915Z</time></trkpt><trkpt lat="43.7797017" lon="11.20148"><ele>40.5</ele><time>2026-04-09T16:13:38.915Z</time></trkpt><trkpt lat="43.7797817" lon="11.2015267"><ele>40.666666666666664</ele><time>2026-04-09T16:13:41.915Z</time></trkpt><trkpt lat="43.7798683" lon="11.2015767"><ele>40.83333333333333</ele><time>2026-04-09T16:13:44.915Z</time></trkpt><trkpt lat="43.779935" lon="11.201605"><ele>41.0</ele><time>2026-04-09T16:13:46.915Z</time></trkpt><trkpt lat="43.7799967" lon="11.20163"><ele>40.99999999999999</ele><time>2026-04-09T16:13:48.916Z</time></trkpt><trkpt lat="43.780055" lon="11.2015783"><ele>41.0</ele><time>2026-04-09T16:13:53.916Z</time></trkpt><trkpt lat="43.7801183" lon="11.2015483"><ele>41.0</ele><time>2026-04-09T16:14:09.915Z</time></trkpt><trkpt lat="43.7801583" lon="11.2016183"><ele>41.0</ele><time>2026-04-09T16:14:12.915Z</time></trkpt><trkpt lat="43.7802217" lon="11.2016883"><ele>41.0</ele><time>2026-04-09T16:14:15.915Z</time></trkpt><trkpt lat="43.780285" lon="11.2017367"><ele>40.99999999999999</ele><time>2026-04-09T16:14:17.915Z</time></trkpt><trkpt lat="43.7803633" lon="11.2017867"><ele>41.0</ele><time>2026-04-09T16:14:19.915Z</time></trkpt><trkpt lat="43.7804333" lon="11.2018267"><ele>40.666666666666664</ele><time>2026-04-09T16:14:21.916Z</time></trkpt><trkpt lat="43.780495" lon="11.2018583"><ele>40.33333333333333</ele><time>2026-04-09T16:14:23.916Z</time></trkpt><trkpt lat="43.780575" lon="11.2019017"><ele>40.0</ele><time>2026-04-09T16:14:26.915Z</time></trkpt><trkpt lat="43.7806717" lon="11.20194"><ele>39.666666666666664</ele><time>2026-04-09T16:14:29.915Z</time></trkpt><trkpt lat="43.780745" lon="11.2019817"><ele>39.333333333333336</ele><time>2026-04-09T16:14:31.915Z</time></trkpt><trkpt lat="43.7808117" lon="11.202025"><ele>39.0</ele><time>2026-04-09T16:14:33.915Z</time></trkpt><trkpt lat="43.7808817" lon="11.202075"><ele>39.0</ele><time>2026-04-09T16:14:35.915Z</time></trkpt><trkpt lat="43.7809567" lon="11.20212"><ele>39.0</ele><time>2026-04-09T16:14:37.915Z</time></trkpt><trkpt lat="43.7810333" lon="11.20216"><ele>39.0</ele><time>2026-04-09T16:14:39.915Z</time></trkpt><trkpt lat="43.7811033" lon="11.2022033"><ele>39.0</ele><time>2026-04-09T16:14:41.916Z</time></trkpt><trkpt lat="43.7811683" lon="11.2022433"><ele>39.0</ele><time>2026-04-09T16:14:43.915Z</time></trkpt><trkpt lat="43.7812467" lon="11.2022867"><ele>39.0</ele><time>2026-04-09T16:14:45.915Z</time></trkpt><trkpt lat="43.7813267" lon="11.2023333"><ele>39.0</ele><time>2026-04-09T16:14:47.915Z</time></trkpt><trkpt lat="43.7814083" lon="11.2023817"><ele>39.0</ele><time>2026-04-09T16:14:49.915Z</time></trkpt><trkpt lat="43.7814883" lon="11.2024217"><ele>39.0</ele><time>2026-04-09T16:14:51.915Z</time></trkpt><trkpt lat="43.7815567" lon="11.2024483"><ele>39.0</ele><time>2026-04-09T16:14:53.915Z</time></trkpt><trkpt lat="43.7816317" lon="11.2024933"><ele>39.0</ele><time>2026-04-09T16:14:55.915Z</time></trkpt><trkpt lat="43.7817083" lon="11.2025467"><ele>39.0</ele><time>2026-04-09T16:14:57.915Z</time></trkpt><trkpt lat="43.7817783" lon="11.2026067"><ele>39.0</ele><time>2026-04-09T16:14:59.916Z</time></trkpt><trkpt lat="43.7818483" lon="11.2026433"><ele>39.0</ele><time>2026-04-09T16:15:01.915Z</time></trkpt><trkpt lat="43.7819217" lon="11.20268"><ele>39.0</ele><time>2026-04-09T16:15:03.915Z</time></trkpt><trkpt lat="43.7819933" lon="11.2027167"><ele>39.0</ele><time>2026-04-09T16:15:05.916Z</time></trkpt><trkpt lat="43.7820533" lon="11.20275"><ele>39.0</ele><time>2026-04-09T16:15:07.915Z</time></trkpt><trkpt lat="43.7821133" lon="11.2027933"><ele>39.0</ele><time>2026-04-09T16:15:09.915Z</time></trkpt><trkpt lat="43.782175" lon="11.2028683"><ele>39.0</ele><time>2026-04-09T16:15:12.915Z</time></trkpt><trkpt lat="43.782195" lon="11.20296"><ele>38.833333333333336</ele><time>2026-04-09T16:15:15.915Z</time></trkpt><trkpt lat="43.78219" lon="11.2030667"><ele>38.666666666666664</ele><time>2026-04-09T16:15:18.916Z</time></trkpt><trkpt lat="43.7821717" lon="11.2031833"><ele>38.5</ele><time>2026-04-09T16:15:21.915Z</time></trkpt><trkpt lat="43.7821483" lon="11.2032983"><ele>38.33333333333333</ele><time>2026-04-09T16:15:24.915Z</time></trkpt><trkpt lat="43.7821317" lon="11.2034083"><ele>38.166666666666664</ele><time>2026-04-09T16:15:27.915Z</time></trkpt><trkpt lat="43.7821133" lon="11.203505"><ele>38.0</ele><time>2026-04-09T16:15:30.916Z</time></trkpt><trkpt lat="43.7820833" lon="11.2036117"><ele>38.0</ele><time>2026-04-09T16:15:34.915Z</time></trkpt><trkpt lat="43.7820917" lon="11.203705"><ele>38.0</ele><time>2026-04-09T16:15:39.915Z</time></trkpt><trkpt lat="43.7821" lon="11.2038"><ele>38.0</ele><time>2026-04-09T16:15:42.915Z</time></trkpt><trkpt lat="43.78209" lon="11.2039317"><ele>38.0</ele><time>2026-04-09T16:15:45.915Z</time></trkpt><trkpt lat="43.782075" lon="11.2040283"><ele>38.0</ele><time>2026-04-09T16:15:47.915Z</time></trkpt><trkpt lat="43.782065" lon="11.2041383"><ele>38.0</ele><time>2026-04-09T16:15:49.915Z</time></trkpt><trkpt lat="43.7820567" lon="11.204255"><ele>38.166666666666664</ele><time>2026-04-09T16:15:51.915Z</time></trkpt><trkpt lat="43.7820417" lon="11.20436"><ele>38.33333333333333</ele><time>2026-04-09T16:15:53.915Z</time></trkpt><trkpt lat="43.782045" lon="11.2044617"><ele>38.5</ele><time>2026-04-09T16:15:55.915Z</time></trkpt><trkpt lat="43.7820517" lon="11.2045683"><ele>38.666666666666664</ele><time>2026-04-09T16:15:57.916Z</time></trkpt><trkpt lat="43.782045" lon="11.20467"><ele>38.833333333333336</ele><time>2026-04-09T16:15:59.915Z</time></trkpt><trkpt lat="43.782045" lon="11.2047833"><ele>39.0</ele><time>2026-04-09T16:16:02.915Z</time></trkpt><trkpt lat="43.7821183" lon="11.2047733"><ele>39.0</ele><time>2026-04-09T16:16:06.915Z</time></trkpt><trkpt lat="43.78215" lon="11.204665"><ele>39.0</ele><time>2026-04-09T16:16:08.915Z</time></trkpt><trkpt lat="43.7821533" lon="11.2045417"><ele>39.0</ele><time>2026-04-09T16:16:10.916Z</time></trkpt><trkpt lat="43.7821633" lon="11.2044083"><ele>39.0</ele><time>2026-04-09T16:16:12.915Z</time></trkpt><trkpt lat="43.782175" lon="11.2042917"><ele>39.0</ele><time>2026-04-09T16:16:14.916Z</time></trkpt><trkpt lat="43.7821933" lon="11.204165"><ele>39.0</ele><time>2026-04-09T16:16:16.915Z</time></trkpt><trkpt lat="43.782215" lon="11.2040517"><ele>39.0</ele><time>2026-04-09T16:16:18.915Z</time></trkpt><trkpt lat="43.7822667" lon="11.20396"><ele>39.0</ele><time>2026-04-09T16:16:20.915Z</time></trkpt><trkpt lat="43.7823433" lon="11.20392"><ele>39.0</ele><time>2026-04-09T16:16:22.915Z</time></trkpt><trkpt lat="43.78242" lon="11.2039367"><ele>39.0</ele><time>2026-04-09T16:16:24.916Z</time></trkpt><trkpt lat="43.7824967" lon="11.2039683"><ele>39.0</ele><time>2026-04-09T16:16:26.916Z</time></trkpt><trkpt lat="43.7825733" lon="11.2039967"><ele>39.0</ele><time>2026-04-09T16:16:28.915Z</time></trkpt><trkpt lat="43.782645" lon="11.2040267"><ele>39.166666666666664</ele><time>2026-04-09T16:16:30.915Z</time></trkpt><trkpt lat="43.7827267" lon="11.2040583"><ele>39.333333333333336</ele><time>2026-04-09T16:16:32.915Z</time></trkpt><trkpt lat="43.7828067" lon="11.2040917"><ele>39.5</ele><time>2026-04-09T16:16:34.916Z</time></trkpt><trkpt lat="43.7828883" lon="11.204125"><ele>39.66666666666667</ele><time>2026-04-09T16:16:36.916Z</time></trkpt><trkpt lat="43.7829667" lon="11.2041533"><ele>39.833333333333336</ele><time>2026-04-09T16:16:38.916Z</time></trkpt><trkpt lat="43.78305" lon="11.204175"><ele>40.0</ele><time>2026-04-09T16:16:40.915Z</time></trkpt><trkpt lat="43.7831333" lon="11.204195"><ele>40.0</ele><time>2026-04-09T16:16:42.915Z</time></trkpt><trkpt lat="43.7832183" lon="11.2042267"><ele>40.0</ele><time>2026-04-09T16:16:44.915Z</time></trkpt><trkpt lat="43.7832933" lon="11.20426"><ele>40.0</ele><time>2026-04-09T16:16:46.915Z</time></trkpt><trkpt lat="43.783375" lon="11.2042817"><ele>40.0</ele><time>2026-04-09T16:16:48.915Z</time></trkpt><trkpt lat="43.7834467" lon="11.2043117"><ele>40.0</ele><time>2026-04-09T16:16:50.916Z</time></trkpt><trkpt lat="43.7835317" lon="11.2043483"><ele>40.0</ele><time>2026-04-09T16:16:52.915Z</time></trkpt><trkpt lat="43.7836083" lon="11.204375"><ele>40.0</ele><time>2026-04-09T16:16:54.916Z</time></trkpt><trkpt lat="43.7836733" lon="11.2044033"><ele>40.0</ele><time>2026-04-09T16:16:56.915Z</time></trkpt><trkpt lat="43.7837433" lon="11.2044333"><ele>40.0</ele><time>2026-04-09T16:16:58.916Z</time></trkpt><trkpt lat="43.78381" lon="11.20446"><ele>40.0</ele><time>2026-04-09T16:17:00.916Z</time></trkpt><trkpt lat="43.7838733" lon="11.2044783"><ele>40.0</ele><time>2026-04-09T16:17:02.916Z</time></trkpt><trkpt lat="43.7839367" lon="11.2045033"><ele>40.0</ele><time>2026-04-09T16:17:04.916Z</time></trkpt><trkpt lat="43.784005" lon="11.2045217"><ele>40.0</ele><time>2026-04-09T16:17:06.916Z</time></trkpt><trkpt lat="43.7840667" lon="11.2045467"><ele>40.0</ele><time>2026-04-09T16:17:08.915Z</time></trkpt><trkpt lat="43.7841317" lon="11.20457"><ele>40.0</ele><time>2026-04-09T16:17:10.915Z</time></trkpt><trkpt lat="43.7842" lon="11.2045983"><ele>40.0</ele><time>2026-04-09T16:17:12.916Z</time></trkpt><trkpt lat="43.784275" lon="11.2046167"><ele>40.0</ele><time>2026-04-09T16:17:14.915Z</time></trkpt><trkpt lat="43.7843567" lon="11.20464"><ele>40.0</ele><time>2026-04-09T16:17:16.915Z</time></trkpt><trkpt lat="43.7844333" lon="11.204675"><ele>40.0</ele><time>2026-04-09T16:17:18.915Z</time></trkpt><trkpt lat="43.7845" lon="11.204705"><ele>40.0</ele><time>2026-04-09T16:17:20.915Z</time></trkpt><trkpt lat="43.7845867" lon="11.204745"><ele>40.0</ele><time>2026-04-09T16:17:22.916Z</time></trkpt><trkpt lat="43.7846617" lon="11.2047683"><ele>40.0</ele><time>2026-04-09T16:17:24.915Z</time></trkpt><trkpt lat="43.78474" lon="11.204795"><ele>40.0</ele><time>2026-04-09T16:17:26.915Z</time></trkpt><trkpt lat="43.7848167" lon="11.204835"><ele>40.0</ele><time>2026-04-09T16:17:28.915Z</time></trkpt><trkpt lat="43.784895" lon="11.204865"><ele>40.0</ele><time>2026-04-09T16:17:30.915Z</time></trkpt><trkpt lat="43.78497" lon="11.2048967"><ele>40.0</ele><time>2026-04-09T16:17:32.916Z</time></trkpt><trkpt lat="43.785035" lon="11.20495"><ele>39.833333333333336</ele><time>2026-04-09T16:17:34.915Z</time></trkpt><trkpt lat="43.7850517" lon="11.2050367"><ele>39.66666666666667</ele><time>2026-04-09T16:17:36.915Z</time></trkpt><trkpt lat="43.785005" lon="11.2051467"><ele>39.5</ele><time>2026-04-09T16:17:39.915Z</time></trkpt><trkpt lat="43.7849717" lon="11.205225"><ele>39.333333333333336</ele><time>2026-04-09T16:17:41.915Z</time></trkpt><trkpt lat="43.7849233" lon="11.20533"><ele>39.166666666666664</ele><time>2026-04-09T16:17:44.915Z</time></trkpt><trkpt lat="43.7848917" lon="11.205415"><ele>39.0</ele><time>2026-04-09T16:17:46.915Z</time></trkpt><trkpt lat="43.7848583" lon="11.2054983"><ele>39.0</ele><time>2026-04-09T16:17:48.915Z</time></trkpt><trkpt lat="43.7848217" lon="11.2055817"><ele>39.0</ele><time>2026-04-09T16:17:50.916Z</time></trkpt><trkpt lat="43.7847817" lon="11.20567"><ele>39.0</ele><time>2026-04-09T16:17:52.915Z</time></trkpt><trkpt lat="43.78474" lon="11.2057617"><ele>39.0</ele><time>2026-04-09T16:17:54.916Z</time></trkpt><trkpt lat="43.7847033" lon="11.2058483"><ele>39.0</ele><time>2026-04-09T16:17:56.916Z</time></trkpt><trkpt lat="43.784655" lon="11.2059433"><ele>39.0</ele><time>2026-04-09T16:17:58.915Z</time></trkpt><trkpt lat="43.784615" lon="11.2060333"><ele>39.166666666666664</ele><time>2026-04-09T16:18:00.916Z</time></trkpt><trkpt lat="43.7845683" lon="11.2061367"><ele>39.333333333333336</ele><time>2026-04-09T16:18:02.915Z</time></trkpt><trkpt lat="43.7845267" lon="11.2062267"><ele>39.5</ele><time>2026-04-09T16:18:04.916Z</time></trkpt><trkpt lat="43.78448" lon="11.20632"><ele>39.66666666666667</ele><time>2026-04-09T16:18:06.916Z</time></trkpt><trkpt lat="43.7844383" lon="11.2064167"><ele>39.833333333333336</ele><time>2026-04-09T16:18:08.915Z</time></trkpt><trkpt lat="43.7843967" lon="11.20651"><ele>40.0</ele><time>2026-04-09T16:18:10.915Z</time></trkpt><trkpt lat="43.7843533" lon="11.20659"><ele>40.0</ele><time>2026-04-09T16:18:12.915Z</time></trkpt><trkpt lat="43.7842983" lon="11.2067017"><ele>40.0</ele><time>2026-04-09T16:18:14.916Z</time></trkpt><trkpt lat="43.7842433" lon="11.2068067"><ele>40.0</ele><time>2026-04-09T16:18:16.915Z</time></trkpt><trkpt lat="43.7841983" lon="11.2069033"><ele>40.0</ele><time>2026-04-09T16:18:18.915Z</time></trkpt><trkpt lat="43.7841467" lon="11.207005"><ele>40.0</ele><time>2026-04-09T16:18:20.915Z</time></trkpt><trkpt lat="43.784095" lon="11.2071267"><ele>40.0</ele><time>2026-04-09T16:18:22.915Z</time></trkpt><trkpt lat="43.784035" lon="11.207235"><ele>40.0</ele><time>2026-04-09T16:18:24.915Z</time></trkpt><trkpt lat="43.783985" lon="11.2073367"><ele>40.0</ele><time>2026-04-09T16:18:26.915Z</time></trkpt><trkpt lat="43.7839417" lon="11.2074333"><ele>40.0</ele><time>2026-04-09T16:18:28.916Z</time></trkpt><trkpt lat="43.7838983" lon="11.2075233"><ele>40.0</ele><time>2026-04-09T16:18:30.915Z</time></trkpt><trkpt lat="43.7838567" lon="11.207605"><ele>40.0</ele><time>2026-04-09T16:18:32.915Z</time></trkpt><trkpt lat="43.7838133" lon="11.2076883"><ele>39.66666666666667</ele><time>2026-04-09T16:18:34.915Z</time></trkpt><trkpt lat="43.7837683" lon="11.2077767"><ele>39.333333333333336</ele><time>2026-04-09T16:18:36.916Z</time></trkpt><trkpt lat="43.783745" lon="11.207885"><ele>39.0</ele><time>2026-04-09T16:18:38.916Z</time></trkpt><trkpt lat="43.7837217" lon="11.2079883"><ele>38.666666666666664</ele><time>2026-04-09T16:18:40.916Z</time></trkpt><trkpt lat="43.7836967" lon="11.20808"><ele>38.33333333333333</ele><time>2026-04-09T16:18:42.915Z</time></trkpt><trkpt lat="43.7836867" lon="11.208175"><ele>38.0</ele><time>2026-04-09T16:18:44.915Z</time></trkpt><trkpt lat="43.783655" lon="11.2082767"><ele>37.5</ele><time>2026-04-09T16:18:46.914Z</time></trkpt><trkpt lat="43.7835967" lon="11.2083817"><ele>37.0</ele><time>2026-04-09T16:18:49.914Z</time></trkpt><trkpt lat="43.783545" lon="11.208485"><ele>36.5</ele><time>2026-04-09T16:18:51.914Z</time></trkpt><trkpt lat="43.783495" lon="11.20859"><ele>36.0</ele><time>2026-04-09T16:18:53.914Z</time></trkpt><trkpt lat="43.7834533" lon="11.2086983"><ele>35.5</ele><time>2026-04-09T16:18:55.914Z</time></trkpt><trkpt lat="43.7834217" lon="11.2088017"><ele>35.0</ele><time>2026-04-09T16:18:57.915Z</time></trkpt><trkpt lat="43.7834" lon="11.20891"><ele>35.666666666666664</ele><time>2026-04-09T16:18:59.915Z</time></trkpt><trkpt lat="43.78338" lon="11.2090133"><ele>36.33333333333333</ele><time>2026-04-09T16:19:01.914Z</time></trkpt><trkpt lat="43.7833567" lon="11.2091333"><ele>37.0</ele><time>2026-04-09T16:19:03.914Z</time></trkpt><trkpt lat="43.7833283" lon="11.20926"><ele>37.666666666666664</ele><time>2026-04-09T16:19:05.914Z</time></trkpt><trkpt lat="43.7832967" lon="11.2093667"><ele>38.333333333333336</ele><time>2026-04-09T16:19:07.914Z</time></trkpt><trkpt lat="43.78326" lon="11.2094433"><ele>39.0</ele><time>2026-04-09T16:19:09.914Z</time></trkpt><trkpt lat="43.7832183" lon="11.2095267"><ele>39.0</ele><time>2026-04-09T16:19:11.914Z</time></trkpt><trkpt lat="43.7831633" lon="11.2096267"><ele>39.0</ele><time>2026-04-09T16:19:13.914Z</time></trkpt><trkpt lat="43.7831083" lon="11.2097117"><ele>39.0</ele><time>2026-04-09T16:19:15.914Z</time></trkpt><trkpt lat="43.7830417" lon="11.2098033"><ele>39.0</ele><time>2026-04-09T16:19:17.914Z</time></trkpt><trkpt lat="43.7829783" lon="11.2098983"><ele>39.0</ele><time>2026-04-09T16:19:19.914Z</time></trkpt><trkpt lat="43.7829383" lon="11.2100033"><ele>39.0</ele><time>2026-04-09T16:19:21.914Z</time></trkpt><trkpt lat="43.7829133" lon="11.2100983"><ele>38.666666666666664</ele><time>2026-04-09T16:19:23.914Z</time></trkpt><trkpt lat="43.7828833" lon="11.2102"><ele>38.333333333333336</ele><time>2026-04-09T16:19:25.914Z</time></trkpt><trkpt lat="43.782855" lon="11.2102817"><ele>38.0</ele><time>2026-04-09T16:19:27.914Z</time></trkpt><trkpt lat="43.7827983" lon="11.2103933"><ele>37.66666666666667</ele><time>2026-04-09T16:19:30.915Z</time></trkpt><trkpt lat="43.7827367" lon="11.2105117"><ele>37.333333333333336</ele><time>2026-04-09T16:19:33.914Z</time></trkpt><trkpt lat="43.7826817" lon="11.21061"><ele>37.0</ele><time>2026-04-09T16:19:35.914Z</time></trkpt><trkpt lat="43.7826333" lon="11.210685"><ele>37.0</ele><time>2026-04-09T16:19:37.914Z</time></trkpt><trkpt lat="43.7825717" lon="11.2107833"><ele>37.0</ele><time>2026-04-09T16:19:40.915Z</time></trkpt><trkpt lat="43.7825317" lon="11.2108683"><ele>37.0</ele><time>2026-04-09T16:19:42.914Z</time></trkpt><trkpt lat="43.78249" lon="11.2109583"><ele>37.0</ele><time>2026-04-09T16:19:44.914Z</time></trkpt><trkpt lat="43.7824633" lon="11.2110533"><ele>37.0</ele><time>2026-04-09T16:19:46.914Z</time></trkpt><trkpt lat="43.7824317" lon="11.211155"><ele>37.0</ele><time>2026-04-09T16:19:48.914Z</time></trkpt><trkpt lat="43.782385" lon="11.211275"><ele>37.0</ele><time>2026-04-09T16:19:50.914Z</time></trkpt><trkpt lat="43.7823417" lon="11.2113917"><ele>37.0</ele><time>2026-04-09T16:19:52.915Z</time></trkpt><trkpt lat="43.78231" lon="11.2114817"><ele>37.0</ele><time>2026-04-09T16:19:54.914Z</time></trkpt><trkpt lat="43.782265" lon="11.211575"><ele>37.0</ele><time>2026-04-09T16:19:56.914Z</time></trkpt><trkpt lat="43.7822183" lon="11.2116767"><ele>37.0</ele><time>2026-04-09T16:19:58.914Z</time></trkpt><trkpt lat="43.7821817" lon="11.2117583"><ele>37.0</ele><time>2026-04-09T16:20:00.914Z</time></trkpt><trkpt lat="43.7821433" lon="11.2118367"><ele>36.42857142857143</ele><time>2026-04-09T16:20:02.914Z</time></trkpt><trkpt lat="43.7821033" lon="11.2119217"><ele>35.857142857142854</ele><time>2026-04-09T16:20:04.914Z</time></trkpt><trkpt lat="43.7820517" lon="11.2120183"><ele>35.285714285714285</ele><time>2026-04-09T16:20:07.914Z</time></trkpt><trkpt lat="43.782015" lon="11.21209"><ele>34.714285714285715</ele><time>2026-04-09T16:20:09.914Z</time></trkpt><trkpt lat="43.7819767" lon="11.21217"><ele>34.142857142857146</ele><time>2026-04-09T16:20:11.915Z</time></trkpt><trkpt lat="43.781945" lon="11.21226"><ele>33.57142857142857</ele><time>2026-04-09T16:20:13.914Z</time></trkpt><trkpt lat="43.78191" lon="11.212345"><ele>33.0</ele><time>2026-04-09T16:20:15.914Z</time></trkpt><trkpt lat="43.7818817" lon="11.2124317"><ele>33.857142857142854</ele><time>2026-04-09T16:20:17.914Z</time></trkpt><trkpt lat="43.7818467" lon="11.212525"><ele>34.714285714285715</ele><time>2026-04-09T16:20:20.914Z</time></trkpt><trkpt lat="43.7817983" lon="11.2126167"><ele>35.57142857142857</ele><time>2026-04-09T16:20:24.914Z</time></trkpt><trkpt lat="43.78176" lon="11.2127"><ele>36.42857142857143</ele><time>2026-04-09T16:20:27.915Z</time></trkpt><trkpt lat="43.781715" lon="11.212765"><ele>37.285714285714285</ele><time>2026-04-09T16:20:30.914Z</time></trkpt><trkpt lat="43.78167" lon="11.2128267"><ele>38.142857142857146</ele><time>2026-04-09T16:20:33.915Z</time></trkpt><trkpt lat="43.78163" lon="11.2129083"><ele>39.0</ele><time>2026-04-09T16:20:36.915Z</time></trkpt><trkpt lat="43.7815917" lon="11.21298"><ele>39.0</ele><time>2026-04-09T16:20:39.914Z</time></trkpt><trkpt lat="43.78154" lon="11.2130517"><ele>39.0</ele><time>2026-04-09T16:20:42.914Z</time></trkpt><trkpt lat="43.781505" lon="11.2131483"><ele>39.0</ele><time>2026-04-09T16:20:45.915Z</time></trkpt><trkpt lat="43.7814667" lon="11.2132367"><ele>39.0</ele><time>2026-04-09T16:20:48.914Z</time></trkpt><trkpt lat="43.7814217" lon="11.2133333"><ele>39.0</ele><time>2026-04-09T16:20:51.914Z</time></trkpt><trkpt lat="43.781375" lon="11.213435"><ele>39.0</ele><time>2026-04-09T16:20:54.914Z</time></trkpt><trkpt lat="43.7813283" lon="11.2135383"><ele>38.5</ele><time>2026-04-09T16:20:57.914Z</time></trkpt><trkpt lat="43.7812833" lon="11.2136333"><ele>38.0</ele><time>2026-04-09T16:21:00.914Z</time></trkpt><trkpt lat="43.7812433" lon="11.2137283"><ele>37.5</ele><time>2026-04-09T16:21:03.914Z</time></trkpt><trkpt lat="43.7811917" lon="11.213825"><ele>37.0</ele><time>2026-04-09T16:21:06.914Z</time></trkpt><trkpt lat="43.7811267" lon="11.2139167"><ele>36.5</ele><time>2026-04-09T16:21:09.914Z</time></trkpt><trkpt lat="43.7810883" lon="11.2139867"><ele>36.0</ele><time>2026-04-09T16:21:11.915Z</time></trkpt><trkpt lat="43.7810533" lon="11.21406"><ele>35.42857142857143</ele><time>2026-04-09T16:21:13.914Z</time></trkpt><trkpt lat="43.7810167" lon="11.21414"><ele>34.85714285714286</ele><time>2026-04-09T16:21:15.914Z</time></trkpt><trkpt lat="43.78098" lon="11.2142233"><ele>34.285714285714285</ele><time>2026-04-09T16:21:17.914Z</time></trkpt><trkpt lat="43.7809433" lon="11.2143017"><ele>33.714285714285715</ele><time>2026-04-09T16:21:19.914Z</time></trkpt><trkpt lat="43.7809" lon="11.2143867"><ele>33.14285714285714</ele><time>2026-04-09T16:21:21.914Z</time></trkpt><trkpt lat="43.780855" lon="11.214465"><ele>32.57142857142857</ele><time>2026-04-09T16:21:23.915Z</time></trkpt><trkpt lat="43.7808133" lon="11.2145483"><ele>32.0</ele><time>2026-04-09T16:21:25.914Z</time></trkpt><trkpt lat="43.7807717" lon="11.2146583"><ele>33.166666666666664</ele><time>2026-04-09T16:21:28.915Z</time></trkpt><trkpt lat="43.7807183" lon="11.2147767"><ele>34.33333333333333</ele><time>2026-04-09T16:21:31.915Z</time></trkpt><trkpt lat="43.7806817" lon="11.2148517"><ele>35.5</ele><time>2026-04-09T16:21:33.914Z</time></trkpt><trkpt lat="43.7806367" lon="11.2149417"><ele>36.666666666666664</ele><time>2026-04-09T16:21:35.914Z</time></trkpt><trkpt lat="43.7805983" lon="11.215035"><ele>37.833333333333336</ele><time>2026-04-09T16:21:37.914Z</time></trkpt><trkpt lat="43.7805617" lon="11.2151183"><ele>39.0</ele><time>2026-04-09T16:21:39.914Z</time></trkpt><trkpt lat="43.7805233" lon="11.2151983"><ele>39.0</ele><time>2026-04-09T16:21:41.914Z</time></trkpt><trkpt lat="43.7804917" lon="11.2152883"><ele>39.0</ele><time>2026-04-09T16:21:43.915Z</time></trkpt><trkpt lat="43.78046" lon="11.2153733"><ele>39.0</ele><time>2026-04-09T16:21:45.914Z</time></trkpt><trkpt lat="43.7804083" lon="11.2154933"><ele>39.0</ele><time>2026-04-09T16:21:48.914Z</time></trkpt><trkpt lat="43.7803667" lon="11.2155867"><ele>39.0</ele><time>2026-04-09T16:21:50.914Z</time></trkpt><trkpt lat="43.7803233" lon="11.2156833"><ele>39.0</ele><time>2026-04-09T16:21:52.914Z</time></trkpt><trkpt lat="43.7802783" lon="11.2157733"><ele>38.666666666666664</ele><time>2026-04-09T16:21:54.914Z</time></trkpt><trkpt lat="43.7802367" lon="11.2158517"><ele>38.333333333333336</ele><time>2026-04-09T16:21:56.915Z</time></trkpt><trkpt lat="43.7802017" lon="11.2159533"><ele>38.0</ele><time>2026-04-09T16:21:58.915Z</time></trkpt><trkpt lat="43.7801667" lon="11.2160433"><ele>37.66666666666667</ele><time>2026-04-09T16:22:00.914Z</time></trkpt><trkpt lat="43.780125" lon="11.2161483"><ele>37.333333333333336</ele><time>2026-04-09T16:22:02.915Z</time></trkpt><trkpt lat="43.7800767" lon="11.216265"><ele>37.0</ele><time>2026-04-09T16:22:04.914Z</time></trkpt><trkpt lat="43.7800433" lon="11.2163483"><ele>37.66666666666667</ele><time>2026-04-09T16:22:06.914Z</time></trkpt><trkpt lat="43.7800167" lon="11.2164517"><ele>38.333333333333336</ele><time>2026-04-09T16:22:08.914Z</time></trkpt><trkpt lat="43.7799733" lon="11.2165583"><ele>39.0</ele><time>2026-04-09T16:22:10.914Z</time></trkpt><trkpt lat="43.7799283" lon="11.2166533"><ele>39.666666666666664</ele><time>2026-04-09T16:22:12.914Z</time></trkpt><trkpt lat="43.779885" lon="11.21675"><ele>40.33333333333333</ele><time>2026-04-09T16:22:14.915Z</time></trkpt><trkpt lat="43.7798517" lon="11.21683"><ele>41.0</ele><time>2026-04-09T16:22:16.915Z</time></trkpt><trkpt lat="43.7798217" lon="11.216925"><ele>40.99999999999999</ele><time>2026-04-09T16:22:18.915Z</time></trkpt><trkpt lat="43.77982" lon="11.2170283"><ele>41.0</ele><time>2026-04-09T16:22:20.915Z</time></trkpt><trkpt lat="43.7798317" lon="11.2171333"><ele>41.0</ele><time>2026-04-09T16:22:22.914Z</time></trkpt><trkpt lat="43.77982" lon="11.2172233"><ele>41.0</ele><time>2026-04-09T16:22:24.914Z</time></trkpt><trkpt lat="43.7797817" lon="11.2173317"><ele>41.0</ele><time>2026-04-09T16:22:27.914Z</time></trkpt><trkpt lat="43.779745" lon="11.217405"><ele>40.99999999999999</ele><time>2026-04-09T16:22:29.914Z</time></trkpt><trkpt lat="43.77971" lon="11.21749"><ele>41.0</ele><time>2026-04-09T16:22:31.914Z</time></trkpt><trkpt lat="43.77967" lon="11.2175617"><ele>40.857142857142854</ele><time>2026-04-09T16:22:34.914Z</time></trkpt><trkpt lat="43.77962" lon="11.217635"><ele>40.714285714285715</ele><time>2026-04-09T16:22:36.914Z</time></trkpt><trkpt lat="43.7795767" lon="11.2177217"><ele>40.57142857142857</ele><time>2026-04-09T16:22:38.914Z</time></trkpt><trkpt lat="43.7795283" lon="11.217815"><ele>40.42857142857143</ele><time>2026-04-09T16:22:40.914Z</time></trkpt><trkpt lat="43.7795" lon="11.2179"><ele>40.285714285714285</ele><time>2026-04-09T16:22:42.914Z</time></trkpt><trkpt lat="43.779505" lon="11.21799"><ele>40.14285714285714</ele><time>2026-04-09T16:22:44.914Z</time></trkpt><trkpt lat="43.7794883" lon="11.2180917"><ele>40.0</ele><time>2026-04-09T16:22:46.914Z</time></trkpt><trkpt lat="43.7794433" lon="11.21816"><ele>40.285714285714285</ele><time>2026-04-09T16:22:48.915Z</time></trkpt><trkpt lat="43.7794067" lon="11.218235"><ele>40.57142857142857</ele><time>2026-04-09T16:22:50.915Z</time></trkpt><trkpt lat="43.77938" lon="11.2183333"><ele>40.85714285714286</ele><time>2026-04-09T16:22:52.914Z</time></trkpt><trkpt lat="43.77935" lon="11.2184267"><ele>41.14285714285714</ele><time>2026-04-09T16:22:54.914Z</time></trkpt><trkpt lat="43.77932" lon="11.2185233"><ele>41.42857142857143</ele><time>2026-04-09T16:22:56.914Z</time></trkpt><trkpt lat="43.7792783" lon="11.2186083"><ele>41.714285714285715</ele><time>2026-04-09T16:22:58.915Z</time></trkpt><trkpt lat="43.77922" lon="11.2186533"><ele>42.0</ele><time>2026-04-09T16:23:00.914Z</time></trkpt><trkpt lat="43.7791483" lon="11.2187083"><ele>42.0</ele><time>2026-04-09T16:23:03.914Z</time></trkpt><trkpt lat="43.77911" lon="11.218815"><ele>42.0</ele><time>2026-04-09T16:23:06.914Z</time></trkpt><trkpt lat="43.779075" lon="11.2189217"><ele>42.0</ele><time>2026-04-09T16:23:09.914Z</time></trkpt><trkpt lat="43.779045" lon="11.2190017"><ele>42.0</ele><time>2026-04-09T16:23:11.914Z</time></trkpt><trkpt lat="43.7790133" lon="11.2190883"><ele>42.0</ele><time>2026-04-09T16:23:13.914Z</time></trkpt><trkpt lat="43.7789867" lon="11.2191733"><ele>42.0</ele><time>2026-04-09T16:23:15.913Z</time></trkpt><trkpt lat="43.7789533" lon="11.2192667"><ele>42.0</ele><time>2026-04-09T16:23:17.913Z</time></trkpt><trkpt lat="43.7789183" lon="11.2193633"><ele>42.0</ele><time>2026-04-09T16:23:19.913Z</time></trkpt><trkpt lat="43.778875" lon="11.2194933"><ele>42.0</ele><time>2026-04-09T16:23:22.913Z</time></trkpt><trkpt lat="43.7788317" lon="11.2196033"><ele>42.0</ele><time>2026-04-09T16:23:24.913Z</time></trkpt><trkpt lat="43.778795" lon="11.2197083"><ele>42.0</ele><time>2026-04-09T16:23:26.913Z</time></trkpt><trkpt lat="43.7787617" lon="11.2197883"><ele>42.0</ele><time>2026-04-09T16:23:28.913Z</time></trkpt><trkpt lat="43.778725" lon="11.2198733"><ele>42.0</ele><time>2026-04-09T16:23:30.914Z</time></trkpt><trkpt lat="43.7786933" lon="11.219965"><ele>42.0</ele><time>2026-04-09T16:23:32.913Z</time></trkpt><trkpt lat="43.7786483" lon="11.2200767"><ele>42.0</ele><time>2026-04-09T16:23:34.914Z</time></trkpt><trkpt lat="43.7786067" lon="11.2201683"><ele>42.0</ele><time>2026-04-09T16:23:36.913Z</time></trkpt><trkpt lat="43.77856" lon="11.2202817"><ele>42.0</ele><time>2026-04-09T16:23:38.913Z</time></trkpt><trkpt lat="43.7785233" lon="11.2203867"><ele>42.0</ele><time>2026-04-09T16:23:40.913Z</time></trkpt><trkpt lat="43.7784917" lon="11.2204717"><ele>42.0</ele><time>2026-04-09T16:23:42.914Z</time></trkpt><trkpt lat="43.77846" lon="11.2205683"><ele>42.666666666666664</ele><time>2026-04-09T16:23:44.914Z</time></trkpt><trkpt lat="43.778415" lon="11.22067"><ele>43.333333333333336</ele><time>2026-04-09T16:23:46.913Z</time></trkpt><trkpt lat="43.7783767" lon="11.22076"><ele>44.0</ele><time>2026-04-09T16:23:48.913Z</time></trkpt><trkpt lat="43.77834" lon="11.2208633"><ele>44.66666666666667</ele><time>2026-04-09T16:23:50.914Z</time></trkpt><trkpt lat="43.778305" lon="11.220965"><ele>45.333333333333336</ele><time>2026-04-09T16:23:52.913Z</time></trkpt><trkpt lat="43.7782633" lon="11.221065"><ele>46.0</ele><time>2026-04-09T16:23:54.914Z</time></trkpt><trkpt lat="43.7782333" lon="11.2211667"><ele>46.0</ele><time>2026-04-09T16:23:56.914Z</time></trkpt><trkpt lat="43.7781983" lon="11.2212667"><ele>46.0</ele><time>2026-04-09T16:23:58.913Z</time></trkpt><trkpt lat="43.77817" lon="11.2213467"><ele>46.0</ele><time>2026-04-09T16:24:00.913Z</time></trkpt><trkpt lat="43.7781317" lon="11.22144"><ele>46.0</ele><time>2026-04-09T16:24:02.913Z</time></trkpt><trkpt lat="43.7781083" lon="11.2215317"><ele>46.0</ele><time>2026-04-09T16:24:04.913Z</time></trkpt><trkpt lat="43.7780917" lon="11.2216183"><ele>46.0</ele><time>2026-04-09T16:24:06.913Z</time></trkpt><trkpt lat="43.7780767" lon="11.2217133"><ele>46.0</ele><time>2026-04-09T16:24:08.913Z</time></trkpt><trkpt lat="43.7780683" lon="11.2218217"><ele>46.0</ele><time>2026-04-09T16:24:10.913Z</time></trkpt><trkpt lat="43.77804" lon="11.2219167"><ele>46.0</ele><time>2026-04-09T16:24:12.914Z</time></trkpt><trkpt lat="43.77801" lon="11.2220017"><ele>46.0</ele><time>2026-04-09T16:24:14.913Z</time></trkpt><trkpt lat="43.777975" lon="11.2221017"><ele>46.0</ele><time>2026-04-09T16:24:17.913Z</time></trkpt><trkpt lat="43.7779283" lon="11.222185"><ele>46.0</ele><time>2026-04-09T16:24:19.914Z</time></trkpt><trkpt lat="43.7779" lon="11.2222733"><ele>46.0</ele><time>2026-04-09T16:24:21.914Z</time></trkpt><trkpt lat="43.777865" lon="11.2223767"><ele>46.0</ele><time>2026-04-09T16:24:23.914Z</time></trkpt><trkpt lat="43.777825" lon="11.2224883"><ele>46.0</ele><time>2026-04-09T16:24:25.913Z</time></trkpt><trkpt lat="43.77779" lon="11.2225717"><ele>46.0</ele><time>2026-04-09T16:24:27.913Z</time></trkpt><trkpt lat="43.7777517" lon="11.2226767"><ele>46.0</ele><time>2026-04-09T16:24:29.913Z</time></trkpt><trkpt lat="43.777725" lon="11.2227583"><ele>46.0</ele><time>2026-04-09T16:24:31.913Z</time></trkpt><trkpt lat="43.7776883" lon="11.2228733"><ele>46.0</ele><time>2026-04-09T16:24:34.913Z</time></trkpt><trkpt lat="43.7776567" lon="11.2229617"><ele>46.0</ele><time>2026-04-09T16:24:36.913Z</time></trkpt><trkpt lat="43.7776267" lon="11.2230583"><ele>46.0</ele><time>2026-04-09T16:24:38.913Z</time></trkpt><trkpt lat="43.77759" lon="11.22317"><ele>46.0</ele><time>2026-04-09T16:24:40.913Z</time></trkpt><trkpt lat="43.77755" lon="11.223285"><ele>46.0</ele><time>2026-04-09T16:24:42.913Z</time></trkpt><trkpt lat="43.7775117" lon="11.22339"><ele>46.0</ele><time>2026-04-09T16:24:44.913Z</time></trkpt><trkpt lat="43.7774867" lon="11.2234717"><ele>46.0</ele><time>2026-04-09T16:24:46.913Z</time></trkpt><trkpt lat="43.77746" lon="11.22357"><ele>45.5</ele><time>2026-04-09T16:24:48.913Z</time></trkpt><trkpt lat="43.7774167" lon="11.22365"><ele>45.0</ele><time>2026-04-09T16:24:50.913Z</time></trkpt><trkpt lat="43.777335" lon="11.223715"><ele>44.5</ele><time>2026-04-09T16:24:53.913Z</time></trkpt><trkpt lat="43.77729" lon="11.2238183"><ele>44.0</ele><time>2026-04-09T16:24:55.914Z</time></trkpt><trkpt lat="43.7772483" lon="11.22395"><ele>43.5</ele><time>2026-04-09T16:24:57.913Z</time></trkpt><trkpt lat="43.777215" lon="11.224055"><ele>43.0</ele><time>2026-04-09T16:24:59.914Z</time></trkpt><trkpt lat="43.7771883" lon="11.2241517"><ele>42.833333333333336</ele><time>2026-04-09T16:25:01.913Z</time></trkpt><trkpt lat="43.7772133" lon="11.2242833"><ele>42.66666666666667</ele><time>2026-04-09T16:25:04.914Z</time></trkpt><trkpt lat="43.77723" lon="11.2243983"><ele>42.5</ele><time>2026-04-09T16:25:06.913Z</time></trkpt><trkpt lat="43.7772283" lon="11.22451"><ele>42.333333333333336</ele><time>2026-04-09T16:25:08.913Z</time></trkpt><trkpt lat="43.77721" lon="11.2246133"><ele>42.166666666666664</ele><time>2026-04-09T16:25:10.913Z</time></trkpt><trkpt lat="43.7771817" lon="11.2247033"><ele>42.0</ele><time>2026-04-09T16:25:12.913Z</time></trkpt><trkpt lat="43.77714" lon="11.2248167"><ele>42.0</ele><time>2026-04-09T16:25:15.913Z</time></trkpt><trkpt lat="43.7771133" lon="11.2249033"><ele>42.0</ele><time>2026-04-09T16:25:17.914Z</time></trkpt><trkpt lat="43.777085" lon="11.2249967"><ele>42.0</ele><time>2026-04-09T16:25:19.913Z</time></trkpt><trkpt lat="43.7770617" lon="11.225085"><ele>42.0</ele><time>2026-04-09T16:25:21.914Z</time></trkpt><trkpt lat="43.7770367" lon="11.2251717"><ele>42.0</ele><time>2026-04-09T16:25:23.914Z</time></trkpt><trkpt lat="43.7770017" lon="11.2252733"><ele>42.0</ele><time>2026-04-09T16:25:25.913Z</time></trkpt><trkpt lat="43.7769767" lon="11.2253683"><ele>42.0</ele><time>2026-04-09T16:25:27.913Z</time></trkpt><trkpt lat="43.7769467" lon="11.2254583"><ele>42.0</ele><time>2026-04-09T16:25:29.913Z</time></trkpt><trkpt lat="43.77692" lon="11.225545"><ele>42.0</ele><time>2026-04-09T16:25:31.913Z</time></trkpt><trkpt lat="43.7768933" lon="11.2256483"><ele>42.0</ele><time>2026-04-09T16:25:33.913Z</time></trkpt><trkpt lat="43.7768617" lon="11.2257483"><ele>42.0</ele><time>2026-04-09T16:25:35.913Z</time></trkpt><trkpt lat="43.7768283" lon="11.2258367"><ele>42.0</ele><time>2026-04-09T16:25:37.913Z</time></trkpt><trkpt lat="43.7768033" lon="11.2259283"><ele>42.0</ele><time>2026-04-09T16:25:39.914Z</time></trkpt><trkpt lat="43.7767683" lon="11.22602"><ele>42.0</ele><time>2026-04-09T16:25:41.913Z</time></trkpt><trkpt lat="43.77674" lon="11.22612"><ele>42.0</ele><time>2026-04-09T16:25:43.914Z</time></trkpt><trkpt lat="43.7767083" lon="11.2262233"><ele>42.0</ele><time>2026-04-09T16:25:45.913Z</time></trkpt><trkpt lat="43.776675" lon="11.2263283"><ele>42.0</ele><time>2026-04-09T16:25:47.913Z</time></trkpt><trkpt lat="43.7766367" lon="11.226435"><ele>42.0</ele><time>2026-04-09T16:25:49.914Z</time></trkpt><trkpt lat="43.776605" lon="11.2265433"><ele>42.0</ele><time>2026-04-09T16:25:51.913Z</time></trkpt><trkpt lat="43.7765817" lon="11.2266517"><ele>42.0</ele><time>2026-04-09T16:25:53.913Z</time></trkpt><trkpt lat="43.7765467" lon="11.2267533"><ele>42.0</ele><time>2026-04-09T16:25:55.913Z</time></trkpt><trkpt lat="43.7765067" lon="11.2268467"><ele>42.0</ele><time>2026-04-09T16:25:57.913Z</time></trkpt><trkpt lat="43.7764733" lon="11.22694"><ele>42.0</ele><time>2026-04-09T16:25:59.913Z</time></trkpt><trkpt lat="43.7764383" lon="11.2270433"><ele>42.0</ele><time>2026-04-09T16:26:01.914Z</time></trkpt><trkpt lat="43.776405" lon="11.2271517"><ele>42.0</ele><time>2026-04-09T16:26:03.913Z</time></trkpt><trkpt lat="43.77637" lon="11.227255"><ele>42.0</ele><time>2026-04-09T16:26:05.913Z</time></trkpt><trkpt lat="43.7763333" lon="11.2273617"><ele>42.166666666666664</ele><time>2026-04-09T16:26:07.914Z</time></trkpt><trkpt lat="43.7762983" lon="11.22746"><ele>42.333333333333336</ele><time>2026-04-09T16:26:09.914Z</time></trkpt><trkpt lat="43.7762617" lon="11.227555"><ele>42.5</ele><time>2026-04-09T16:26:11.913Z</time></trkpt><trkpt lat="43.776235" lon="11.22765"><ele>42.66666666666667</ele><time>2026-04-09T16:26:13.914Z</time></trkpt><trkpt lat="43.7762117" lon="11.2277567"><ele>42.833333333333336</ele><time>2026-04-09T16:26:15.913Z</time></trkpt><trkpt lat="43.7761883" lon="11.2278567"><ele>43.0</ele><time>2026-04-09T16:26:17.913Z</time></trkpt><trkpt lat="43.77615" lon="11.2279467"><ele>43.0</ele><time>2026-04-09T16:26:19.913Z</time></trkpt><trkpt lat="43.7761067" lon="11.2280467"><ele>43.0</ele><time>2026-04-09T16:26:21.914Z</time></trkpt><trkpt lat="43.7760717" lon="11.2281533"><ele>43.0</ele><time>2026-04-09T16:26:23.913Z</time></trkpt><trkpt lat="43.7760367" lon="11.228245"><ele>43.0</ele><time>2026-04-09T16:26:25.913Z</time></trkpt><trkpt lat="43.7760067" lon="11.2283433"><ele>43.0</ele><time>2026-04-09T16:26:27.913Z</time></trkpt><trkpt lat="43.7759783" lon="11.22843"><ele>43.0</ele><time>2026-04-09T16:26:29.913Z</time></trkpt><trkpt lat="43.7759533" lon="11.2285117"><ele>43.0</ele><time>2026-04-09T16:26:31.913Z</time></trkpt><trkpt lat="43.775925" lon="11.228615"><ele>43.0</ele><time>2026-04-09T16:26:34.913Z</time></trkpt><trkpt lat="43.7758917" lon="11.22871"><ele>43.0</ele><time>2026-04-09T16:26:37.913Z</time></trkpt><trkpt lat="43.77586" lon="11.2288"><ele>43.0</ele><time>2026-04-09T16:26:40.913Z</time></trkpt><trkpt lat="43.77586" lon="11.2289117"><ele>43.0</ele><time>2026-04-09T16:26:43.914Z</time></trkpt><trkpt lat="43.7758933" lon="11.2289983"><ele>43.0</ele><time>2026-04-09T16:26:46.913Z</time></trkpt><trkpt lat="43.7759583" lon="11.229075"><ele>42.85714285714286</ele><time>2026-04-09T16:26:50.914Z</time></trkpt><trkpt lat="43.776015" lon="11.2291217"><ele>42.714285714285715</ele><time>2026-04-09T16:26:53.913Z</time></trkpt><trkpt lat="43.776075" lon="11.2291683"><ele>42.57142857142857</ele><time>2026-04-09T16:26:56.913Z</time></trkpt><trkpt lat="43.7761417" lon="11.229225"><ele>42.42857142857143</ele><time>2026-04-09T16:26:59.913Z</time></trkpt><trkpt lat="43.7762117" lon="11.2292783"><ele>42.285714285714285</ele><time>2026-04-09T16:27:02.913Z</time></trkpt><trkpt lat="43.7762817" lon="11.22933"><ele>42.142857142857146</ele><time>2026-04-09T16:27:05.914Z</time></trkpt><trkpt lat="43.7763467" lon="11.2293817"><ele>42.0</ele><time>2026-04-09T16:27:08.913Z</time></trkpt><trkpt lat="43.7764217" lon="11.2294433"><ele>42.0</ele><time>2026-04-09T16:27:11.913Z</time></trkpt><trkpt lat="43.7764883" lon="11.2294967"><ele>42.0</ele><time>2026-04-09T16:27:14.913Z</time></trkpt><trkpt lat="43.7765733" lon="11.229555"><ele>42.0</ele><time>2026-04-09T16:27:17.912Z</time></trkpt><trkpt lat="43.7766417" lon="11.229605"><ele>42.0</ele><time>2026-04-09T16:27:19.912Z</time></trkpt><trkpt lat="43.7767183" lon="11.229665"><ele>42.0</ele><time>2026-04-09T16:27:21.912Z</time></trkpt><trkpt lat="43.7768067" lon="11.2297483"><ele>42.0</ele><time>2026-04-09T16:27:23.912Z</time></trkpt><trkpt lat="43.7768717" lon="11.22988"><ele>42.166666666666664</ele><time>2026-04-09T16:27:25.912Z</time></trkpt><trkpt lat="43.77688" lon="11.2300383"><ele>42.333333333333336</ele><time>2026-04-09T16:27:27.912Z</time></trkpt><trkpt lat="43.7768517" lon="11.2302083"><ele>42.5</ele><time>2026-04-09T16:27:29.912Z</time></trkpt><trkpt lat="43.7768317" lon="11.2302967"><ele>42.66666666666667</ele><time>2026-04-09T16:27:30.912Z</time></trkpt><trkpt lat="43.7768117" lon="11.2303867"><ele>42.833333333333336</ele><time>2026-04-09T16:27:31.912Z</time></trkpt><trkpt lat="43.7767833" lon="11.2304783"><ele>43.0</ele><time>2026-04-09T16:27:32.912Z</time></trkpt><trkpt lat="43.776765" lon="11.230565"><ele>43.2</ele><time>2026-04-09T16:27:33.912Z</time></trkpt><trkpt lat="43.7767333" lon="11.230725"><ele>43.4</ele><time>2026-04-09T16:27:35.913Z</time></trkpt><trkpt lat="43.776695" lon="11.230865"><ele>43.6</ele><time>2026-04-09T16:27:37.913Z</time></trkpt><trkpt lat="43.776645" lon="11.2310067"><ele>43.800000000000004</ele><time>2026-04-09T16:27:39.912Z</time></trkpt><trkpt lat="43.7766067" lon="11.2311317"><ele>44.0</ele><time>2026-04-09T16:27:41.913Z</time></trkpt><trkpt lat="43.7765733" lon="11.2312433"><ele>44.0</ele><time>2026-04-09T16:27:43.912Z</time></trkpt><trkpt lat="43.7765333" lon="11.23135"><ele>44.0</ele><time>2026-04-09T16:27:45.912Z</time></trkpt><trkpt lat="43.7765067" lon="11.2314683"><ele>44.0</ele><time>2026-04-09T16:27:47.912Z</time></trkpt><trkpt lat="43.776475" lon="11.23158"><ele>44.0</ele><time>2026-04-09T16:27:49.913Z</time></trkpt><trkpt lat="43.776445" lon="11.2316967"><ele>44.0</ele><time>2026-04-09T16:27:51.912Z</time></trkpt><trkpt lat="43.7764067" lon="11.2318167"><ele>44.0</ele><time>2026-04-09T16:27:53.913Z</time></trkpt><trkpt lat="43.77638" lon="11.23192"><ele>44.666666666666664</ele><time>2026-04-09T16:27:55.912Z</time></trkpt><trkpt lat="43.7763517" lon="11.2320317"><ele>45.33333333333333</ele><time>2026-04-09T16:27:57.912Z</time></trkpt><trkpt lat="43.7763133" lon="11.23214"><ele>46.0</ele><time>2026-04-09T16:27:59.912Z</time></trkpt><trkpt lat="43.7762783" lon="11.2322417"><ele>46.666666666666664</ele><time>2026-04-09T16:28:01.912Z</time></trkpt><trkpt lat="43.776255" lon="11.232355"><ele>47.333333333333336</ele><time>2026-04-09T16:28:03.912Z</time></trkpt><trkpt lat="43.77623" lon="11.2324633"><ele>48.0</ele><time>2026-04-09T16:28:05.912Z</time></trkpt><trkpt lat="43.7761967" lon="11.232585"><ele>48.4</ele><time>2026-04-09T16:28:07.913Z</time></trkpt><trkpt lat="43.7761583" lon="11.2326933"><ele>48.8</ele><time>2026-04-09T16:28:09.912Z</time></trkpt><trkpt lat="43.7761233" lon="11.232815"><ele>49.2</ele><time>2026-04-09T16:28:11.912Z</time></trkpt><trkpt lat="43.7760933" lon="11.2329467"><ele>49.6</ele><time>2026-04-09T16:28:13.912Z</time></trkpt><trkpt lat="43.7760633" lon="11.2330583"><ele>50.0</ele><time>2026-04-09T16:28:15.913Z</time></trkpt><trkpt lat="43.7760383" lon="11.23318"><ele>48.6</ele><time>2026-04-09T16:28:17.913Z</time></trkpt><trkpt lat="43.776015" lon="11.23331"><ele>47.2</ele><time>2026-04-09T16:28:19.913Z</time></trkpt><trkpt lat="43.77597" lon="11.2334433"><ele>45.8</ele><time>2026-04-09T16:28:21.912Z</time></trkpt><trkpt lat="43.7759333" lon="11.23357"><ele>44.4</ele><time>2026-04-09T16:28:23.912Z</time></trkpt><trkpt lat="43.77591" lon="11.2336783"><ele>43.0</ele><time>2026-04-09T16:28:25.912Z</time></trkpt><trkpt lat="43.7758833" lon="11.2338"><ele>43.0</ele><time>2026-04-09T16:28:27.913Z</time></trkpt><trkpt lat="43.7758617" lon="11.2339167"><ele>43.0</ele><time>2026-04-09T16:28:29.913Z</time></trkpt><trkpt lat="43.7758367" lon="11.2340367"><ele>43.0</ele><time>2026-04-09T16:28:31.912Z</time></trkpt><trkpt lat="43.77583" lon="11.2341617"><ele>43.0</ele><time>2026-04-09T16:28:33.912Z</time></trkpt><trkpt lat="43.7758417" lon="11.2342933"><ele>43.0</ele><time>2026-04-09T16:28:35.912Z</time></trkpt><trkpt lat="43.7758717" lon="11.2344033"><ele>43.0</ele><time>2026-04-09T16:28:37.913Z</time></trkpt><trkpt lat="43.7758783" lon="11.2345083"><ele>43.16666666666667</ele><time>2026-04-09T16:28:39.912Z</time></trkpt><trkpt lat="43.7759083" lon="11.2346217"><ele>43.333333333333336</ele><time>2026-04-09T16:28:42.912Z</time></trkpt><trkpt lat="43.7759933" lon="11.23469"><ele>43.5</ele><time>2026-04-09T16:28:53.912Z</time></trkpt><trkpt lat="43.776035" lon="11.23479"><ele>43.666666666666664</ele><time>2026-04-09T16:28:56.913Z</time></trkpt><trkpt lat="43.7760383" lon="11.23491"><ele>43.83333333333333</ele><time>2026-04-09T16:28:59.912Z</time></trkpt><trkpt lat="43.7760417" lon="11.2350017"><ele>44.0</ele><time>2026-04-09T16:29:01.912Z</time></trkpt><trkpt lat="43.7760367" lon="11.235095"><ele>44.0</ele><time>2026-04-09T16:29:03.912Z</time></trkpt><trkpt lat="43.7760367" lon="11.235185"><ele>44.0</ele><time>2026-04-09T16:29:05.912Z</time></trkpt><trkpt lat="43.7760417" lon="11.2352783"><ele>44.0</ele><time>2026-04-09T16:29:07.912Z</time></trkpt><trkpt lat="43.7760417" lon="11.235405"><ele>44.0</ele><time>2026-04-09T16:29:10.912Z</time></trkpt><trkpt lat="43.7760367" lon="11.235505"><ele>44.0</ele><time>2026-04-09T16:29:12.912Z</time></trkpt><trkpt lat="43.7760133" lon="11.2356017"><ele>44.0</ele><time>2026-04-09T16:29:14.912Z</time></trkpt><trkpt lat="43.77598" lon="11.2356917"><ele>44.0</ele><time>2026-04-09T16:29:16.913Z</time></trkpt><trkpt lat="43.7759567" lon="11.235785"><ele>44.285714285714285</ele><time>2026-04-09T16:29:18.912Z</time></trkpt><trkpt lat="43.775935" lon="11.2358783"><ele>44.57142857142857</ele><time>2026-04-09T16:29:20.912Z</time></trkpt><trkpt lat="43.7759" lon="11.23598"><ele>44.85714285714286</ele><time>2026-04-09T16:29:23.912Z</time></trkpt><trkpt lat="43.77588" lon="11.2360633"><ele>45.14285714285714</ele><time>2026-04-09T16:29:25.912Z</time></trkpt><trkpt lat="43.7758583" lon="11.2361617"><ele>45.42857142857142</ele><time>2026-04-09T16:29:27.913Z</time></trkpt><trkpt lat="43.7758433" lon="11.2362483"><ele>45.714285714285715</ele><time>2026-04-09T16:29:29.912Z</time></trkpt><trkpt lat="43.7758283" lon="11.2363467"><ele>46.0</ele><time>2026-04-09T16:29:31.912Z</time></trkpt><trkpt lat="43.7758117" lon="11.2364733"><ele>46.16666666666667</ele><time>2026-04-09T16:29:33.912Z</time></trkpt><trkpt lat="43.7757883" lon="11.2365933"><ele>46.333333333333336</ele><time>2026-04-09T16:29:35.912Z</time></trkpt><trkpt lat="43.7757467" lon="11.2366883"><ele>46.5</ele><time>2026-04-09T16:29:37.913Z</time></trkpt><trkpt lat="43.775675" lon="11.23674"><ele>46.666666666666664</ele><time>2026-04-09T16:29:39.912Z</time></trkpt><trkpt lat="43.77562" lon="11.236805"><ele>46.83333333333333</ele><time>2026-04-09T16:29:41.912Z</time></trkpt><trkpt lat="43.775555" lon="11.2368133"><ele>47.0</ele><time>2026-04-09T16:29:43.913Z</time></trkpt><trkpt lat="43.77549" lon="11.236775"><ele>47.0</ele><time>2026-04-09T16:29:45.912Z</time></trkpt><trkpt lat="43.7754317" lon="11.236735"><ele>47.0</ele><time>2026-04-09T16:29:47.912Z</time></trkpt><trkpt lat="43.77537" lon="11.2366967"><ele>47.0</ele><time>2026-04-09T16:29:49.912Z</time></trkpt><trkpt lat="43.7753" lon="11.2366583"><ele>47.0</ele><time>2026-04-09T16:29:51.912Z</time></trkpt><trkpt lat="43.7752317" lon="11.2366067"><ele>47.0</ele><time>2026-04-09T16:29:53.912Z</time></trkpt><trkpt lat="43.77517" lon="11.2365467"><ele>47.0</ele><time>2026-04-09T16:29:55.912Z</time></trkpt><trkpt lat="43.7751067" lon="11.2364867"><ele>47.0</ele><time>2026-04-09T16:29:57.913Z</time></trkpt><trkpt lat="43.7750367" lon="11.2364533"><ele>47.166666666666664</ele><time>2026-04-09T16:29:59.913Z</time></trkpt><trkpt lat="43.774975" lon="11.2364817"><ele>47.33333333333333</ele><time>2026-04-09T16:30:01.912Z</time></trkpt><trkpt lat="43.77493" lon="11.236575"><ele>47.5</ele><time>2026-04-09T16:30:04.912Z</time></trkpt><trkpt lat="43.7749117" lon="11.23666"><ele>47.666666666666664</ele><time>2026-04-09T16:30:06.913Z</time></trkpt><trkpt lat="43.7748917" lon="11.23676"><ele>47.833333333333336</ele><time>2026-04-09T16:30:08.913Z</time></trkpt><trkpt lat="43.7748617" lon="11.23686"><ele>48.0</ele><time>2026-04-09T16:30:10.912Z</time></trkpt><trkpt lat="43.77484" lon="11.2369767"><ele>48.0</ele><time>2026-04-09T16:30:12.912Z</time></trkpt><trkpt lat="43.774805" lon="11.23709"><ele>48.0</ele><time>2026-04-09T16:30:14.913Z</time></trkpt><trkpt lat="43.7747683" lon="11.2372083"><ele>48.0</ele><time>2026-04-09T16:30:16.913Z</time></trkpt><trkpt lat="43.77474" lon="11.2373283"><ele>48.0</ele><time>2026-04-09T16:30:18.912Z</time></trkpt><trkpt lat="43.774705" lon="11.2374567"><ele>48.0</ele><time>2026-04-09T16:30:20.912Z</time></trkpt><trkpt lat="43.7746767" lon="11.23758"><ele>48.599999999999994</ele><time>2026-04-09T16:30:22.912Z</time></trkpt><trkpt lat="43.774635" lon="11.23771"><ele>49.199999999999996</ele><time>2026-04-09T16:30:24.912Z</time></trkpt><trkpt lat="43.7746017" lon="11.2378417"><ele>49.8</ele><time>2026-04-09T16:30:26.912Z</time></trkpt><trkpt lat="43.7745567" lon="11.2379733"><ele>50.4</ele><time>2026-04-09T16:30:28.912Z</time></trkpt><trkpt lat="43.7745083" lon="11.238105"><ele>51.0</ele><time>2026-04-09T16:30:30.912Z</time></trkpt><trkpt lat="43.774465" lon="11.23823"><ele>51.199999999999996</ele><time>2026-04-09T16:30:32.912Z</time></trkpt><trkpt lat="43.774415" lon="11.2383533"><ele>51.4</ele><time>2026-04-09T16:30:34.912Z</time></trkpt><trkpt lat="43.7743717" lon="11.2384967"><ele>51.6</ele><time>2026-04-09T16:30:36.912Z</time></trkpt><trkpt lat="43.7743267" lon="11.2386433"><ele>51.8</ele><time>2026-04-09T16:30:38.912Z</time></trkpt><trkpt lat="43.7742783" lon="11.2387717"><ele>52.0</ele><time>2026-04-09T16:30:40.912Z</time></trkpt><trkpt lat="43.7742233" lon="11.2389167"><ele>51.6</ele><time>2026-04-09T16:30:42.913Z</time></trkpt><trkpt lat="43.77419" lon="11.2390567"><ele>51.2</ele><time>2026-04-09T16:30:44.913Z</time></trkpt><trkpt lat="43.774155" lon="11.239195"><ele>50.8</ele><time>2026-04-09T16:30:46.912Z</time></trkpt><trkpt lat="43.774115" lon="11.2393317"><ele>50.4</ele><time>2026-04-09T16:30:48.912Z</time></trkpt><trkpt lat="43.7740683" lon="11.23943"><ele>50.0</ele><time>2026-04-09T16:30:50.913Z</time></trkpt><trkpt lat="43.77402" lon="11.2395167"><ele>50.00000000000001</ele><time>2026-04-09T16:30:52.913Z</time></trkpt><trkpt lat="43.7740067" lon="11.2396117"><ele>50.0</ele><time>2026-04-09T16:30:54.912Z</time></trkpt><trkpt lat="43.77398" lon="11.2397133"><ele>50.0</ele><time>2026-04-09T16:30:56.911Z</time></trkpt><trkpt lat="43.7739583" lon="11.2398267"><ele>50.0</ele><time>2026-04-09T16:30:58.911Z</time></trkpt><trkpt lat="43.7739233" lon="11.2399267"><ele>50.00000000000001</ele><time>2026-04-09T16:31:00.911Z</time></trkpt><trkpt lat="43.77388" lon="11.24004"><ele>50.0</ele><time>2026-04-09T16:31:02.912Z</time></trkpt><trkpt lat="43.77383" lon="11.24016"><ele>50.2</ele><time>2026-04-09T16:31:04.911Z</time></trkpt><trkpt lat="43.7737867" lon="11.2402833"><ele>50.4</ele><time>2026-04-09T16:31:06.911Z</time></trkpt><trkpt lat="43.773745" lon="11.2403967"><ele>50.599999999999994</ele><time>2026-04-09T16:31:08.912Z</time></trkpt><trkpt lat="43.7737167" lon="11.2405283"><ele>50.8</ele><time>2026-04-09T16:31:10.911Z</time></trkpt><trkpt lat="43.773675" lon="11.2406517"><ele>51.0</ele><time>2026-04-09T16:31:12.911Z</time></trkpt><trkpt lat="43.7736233" lon="11.24077"><ele>51.0</ele><time>2026-04-09T16:31:14.912Z</time></trkpt><trkpt lat="43.7735733" lon="11.24088"><ele>51.0</ele><time>2026-04-09T16:31:16.912Z</time></trkpt><trkpt lat="43.773525" lon="11.2409933"><ele>51.0</ele><time>2026-04-09T16:31:18.911Z</time></trkpt><trkpt lat="43.773495" lon="11.2410717"><ele>51.0</ele><time>2026-04-09T16:31:20.911Z</time></trkpt><trkpt lat="43.77346" lon="11.2411717"><ele>51.0</ele><time>2026-04-09T16:31:23.911Z</time></trkpt><trkpt lat="43.77342" lon="11.2412867"><ele>51.0</ele><time>2026-04-09T16:31:26.911Z</time></trkpt><trkpt lat="43.7733883" lon="11.2413717"><ele>50.142857142857146</ele><time>2026-04-09T16:31:28.911Z</time></trkpt><trkpt lat="43.7733633" lon="11.241465"><ele>49.28571428571429</ele><time>2026-04-09T16:31:30.911Z</time></trkpt><trkpt lat="43.7733333" lon="11.2415567"><ele>48.42857142857143</ele><time>2026-04-09T16:31:32.911Z</time></trkpt><trkpt lat="43.7733017" lon="11.24165"><ele>47.57142857142857</ele><time>2026-04-09T16:31:34.911Z</time></trkpt><trkpt lat="43.7732683" lon="11.2417467"><ele>46.714285714285715</ele><time>2026-04-09T16:31:36.911Z</time></trkpt><trkpt lat="43.7732367" lon="11.2418433"><ele>45.857142857142854</ele><time>2026-04-09T16:31:38.912Z</time></trkpt><trkpt lat="43.7732067" lon="11.24194"><ele>45.0</ele><time>2026-04-09T16:31:40.911Z</time></trkpt><trkpt lat="43.7731783" lon="11.2420417"><ele>44.833333333333336</ele><time>2026-04-09T16:31:42.912Z</time></trkpt><trkpt lat="43.773145" lon="11.2421483"><ele>44.666666666666664</ele><time>2026-04-09T16:31:44.912Z</time></trkpt><trkpt lat="43.7731167" lon="11.2422567"><ele>44.5</ele><time>2026-04-09T16:31:46.911Z</time></trkpt><trkpt lat="43.773075" lon="11.2423683"><ele>44.33333333333333</ele><time>2026-04-09T16:31:48.912Z</time></trkpt><trkpt lat="43.7730317" lon="11.24248"><ele>44.166666666666664</ele><time>2026-04-09T16:31:50.911Z</time></trkpt><trkpt lat="43.7729933" lon="11.2425867"><ele>44.0</ele><time>2026-04-09T16:31:52.912Z</time></trkpt><trkpt lat="43.77295" lon="11.2426883"><ele>45.166666666666664</ele><time>2026-04-09T16:31:54.912Z</time></trkpt><trkpt lat="43.7729117" lon="11.2427867"><ele>46.33333333333333</ele><time>2026-04-09T16:31:56.911Z</time></trkpt><trkpt lat="43.7728783" lon="11.2428883"><ele>47.5</ele><time>2026-04-09T16:31:58.911Z</time></trkpt><trkpt lat="43.772845" lon="11.2429867"><ele>48.666666666666664</ele><time>2026-04-09T16:32:00.911Z</time></trkpt><trkpt lat="43.7728" lon="11.2430917"><ele>49.833333333333336</ele><time>2026-04-09T16:32:02.911Z</time></trkpt><trkpt lat="43.7727667" lon="11.2431833"><ele>51.0</ele><time>2026-04-09T16:32:04.911Z</time></trkpt><trkpt lat="43.7727267" lon="11.2432733"><ele>51.5</ele><time>2026-04-09T16:32:06.911Z</time></trkpt><trkpt lat="43.772705" lon="11.243375"><ele>52.0</ele><time>2026-04-09T16:32:09.911Z</time></trkpt><trkpt lat="43.77265" lon="11.24346"><ele>52.5</ele><time>2026-04-09T16:32:12.912Z</time></trkpt><trkpt lat="43.7725883" lon="11.2435467"><ele>53.0</ele><time>2026-04-09T16:32:15.911Z</time></trkpt><trkpt lat="43.77257" lon="11.24365"><ele>53.5</ele><time>2026-04-09T16:32:18.911Z</time></trkpt><trkpt lat="43.7725417" lon="11.2437583"><ele>54.0</ele><time>2026-04-09T16:32:21.911Z</time></trkpt><trkpt lat="43.7725117" lon="11.2438833"><ele>54.166666666666664</ele><time>2026-04-09T16:32:24.911Z</time></trkpt><trkpt lat="43.7724717" lon="11.2439683"><ele>54.33333333333333</ele><time>2026-04-09T16:32:26.912Z</time></trkpt><trkpt lat="43.772435" lon="11.2440567"><ele>54.5</ele><time>2026-04-09T16:32:28.912Z</time></trkpt><trkpt lat="43.7723983" lon="11.2441433"><ele>54.666666666666664</ele><time>2026-04-09T16:32:30.911Z</time></trkpt><trkpt lat="43.7723617" lon="11.2442367"><ele>54.83333333333333</ele><time>2026-04-09T16:32:32.911Z</time></trkpt><trkpt lat="43.77232" lon="11.2443317"><ele>55.0</ele><time>2026-04-09T16:32:34.911Z</time></trkpt><trkpt lat="43.772275" lon="11.244435"><ele>54.99999999999999</ele><time>2026-04-09T16:32:36.911Z</time></trkpt><trkpt lat="43.7722383" lon="11.244535"><ele>55.0</ele><time>2026-04-09T16:32:38.911Z</time></trkpt><trkpt lat="43.7721917" lon="11.2446317"><ele>55.0</ele><time>2026-04-09T16:32:40.911Z</time></trkpt><trkpt lat="43.7721517" lon="11.2447367"><ele>55.0</ele><time>2026-04-09T16:32:42.911Z</time></trkpt><trkpt lat="43.7720983" lon="11.2448317"><ele>54.99999999999999</ele><time>2026-04-09T16:32:44.911Z</time></trkpt><trkpt lat="43.7720517" lon="11.24493"><ele>55.0</ele><time>2026-04-09T16:32:46.912Z</time></trkpt><trkpt lat="43.77201" lon="11.2450217"><ele>54.99999999999999</ele><time>2026-04-09T16:32:48.911Z</time></trkpt><trkpt lat="43.7719683" lon="11.2451167"><ele>55.0</ele><time>2026-04-09T16:32:50.911Z</time></trkpt><trkpt lat="43.77192" lon="11.245215"><ele>55.0</ele><time>2026-04-09T16:32:52.912Z</time></trkpt><trkpt lat="43.7718817" lon="11.245315"><ele>55.0</ele><time>2026-04-09T16:32:54.912Z</time></trkpt><trkpt lat="43.771835" lon="11.2454183"><ele>54.99999999999999</ele><time>2026-04-09T16:32:56.912Z</time></trkpt><trkpt lat="43.7717917" lon="11.2455033"><ele>55.0</ele><time>2026-04-09T16:32:58.911Z</time></trkpt><trkpt lat="43.771755" lon="11.2455933"><ele>56.49999999999999</ele><time>2026-04-09T16:33:00.911Z</time></trkpt><trkpt lat="43.77173" lon="11.245685"><ele>58.0</ele><time>2026-04-09T16:33:02.911Z</time></trkpt><trkpt lat="43.7716983" lon="11.2457767"><ele>59.5</ele><time>2026-04-09T16:33:04.911Z</time></trkpt><trkpt lat="43.7716583" lon="11.24587"><ele>61.0</ele><time>2026-04-09T16:33:06.912Z</time></trkpt><trkpt lat="43.7716133" lon="11.24597"><ele>62.49999999999999</ele><time>2026-04-09T16:33:08.911Z</time></trkpt><trkpt lat="43.7715733" lon="11.2460783"><ele>64.0</ele><time>2026-04-09T16:33:10.912Z</time></trkpt><trkpt lat="43.77153" lon="11.2461933"><ele>64.0</ele><time>2026-04-09T16:33:12.911Z</time></trkpt><trkpt lat="43.771485" lon="11.2463"><ele>64.0</ele><time>2026-04-09T16:33:14.911Z</time></trkpt><trkpt lat="43.7714267" lon="11.24641"><ele>64.0</ele><time>2026-04-09T16:33:16.911Z</time></trkpt><trkpt lat="43.7713717" lon="11.2465183"><ele>64.0</ele><time>2026-04-09T16:33:18.911Z</time></trkpt><trkpt lat="43.7713267" lon="11.2466283"><ele>64.0</ele><time>2026-04-09T16:33:20.911Z</time></trkpt><trkpt lat="43.7712783" lon="11.24674"><ele>62.6</ele><time>2026-04-09T16:33:22.912Z</time></trkpt><trkpt lat="43.7712283" lon="11.2468483"><ele>61.2</ele><time>2026-04-09T16:33:24.911Z</time></trkpt><trkpt lat="43.7711767" lon="11.2469617"><ele>59.800000000000004</ele><time>2026-04-09T16:33:26.911Z</time></trkpt><trkpt lat="43.7711267" lon="11.24708"><ele>58.400000000000006</ele><time>2026-04-09T16:33:28.911Z</time></trkpt><trkpt lat="43.7710867" lon="11.2471917"><ele>57.0</ele><time>2026-04-09T16:33:30.911Z</time></trkpt><trkpt lat="43.7710467" lon="11.2472833"><ele>56.0</ele><time>2026-04-09T16:33:32.911Z</time></trkpt><trkpt lat="43.7710083" lon="11.2473833"><ele>55.0</ele><time>2026-04-09T16:33:34.911Z</time></trkpt><trkpt lat="43.770965" lon="11.247465"><ele>54.0</ele><time>2026-04-09T16:33:36.911Z</time></trkpt><trkpt lat="43.7709283" lon="11.24755"><ele>53.0</ele><time>2026-04-09T16:33:38.911Z</time></trkpt><trkpt lat="43.7709083" lon="11.2476333"><ele>52.0</ele><time>2026-04-09T16:33:41.912Z</time></trkpt><trkpt lat="43.7709117" lon="11.2477417"><ele>51.0</ele><time>2026-04-09T16:33:46.911Z</time></trkpt><trkpt lat="43.770895" lon="11.2479017"><ele>51.0</ele><time>2026-04-09T16:33:54.911Z</time></trkpt><trkpt lat="43.77093" lon="11.2479983"><ele>51.0</ele><time>2026-04-09T16:33:57.911Z</time></trkpt><trkpt lat="43.770955" lon="11.2481117"><ele>51.0</ele><time>2026-04-09T16:34:00.912Z</time></trkpt><trkpt lat="43.7709533" lon="11.2482217"><ele>51.0</ele><time>2026-04-09T16:34:03.911Z</time></trkpt><trkpt lat="43.7709833" lon="11.2483233"><ele>51.0</ele><time>2026-04-09T16:34:05.912Z</time></trkpt><trkpt lat="43.7710083" lon="11.2484167"><ele>51.0</ele><time>2026-04-09T16:34:07.911Z</time></trkpt><trkpt lat="43.7710283" lon="11.24851"><ele>52.0</ele><time>2026-04-09T16:34:09.911Z</time></trkpt><trkpt lat="43.771055" lon="11.2486033"><ele>53.0</ele><time>2026-04-09T16:34:11.911Z</time></trkpt><trkpt lat="43.771075" lon="11.2487183"><ele>54.0</ele><time>2026-04-09T16:34:13.911Z</time></trkpt><trkpt lat="43.7710967" lon="11.248835"><ele>55.0</ele><time>2026-04-09T16:34:15.912Z</time></trkpt><trkpt lat="43.7711167" lon="11.2489583"><ele>56.0</ele><time>2026-04-09T16:34:17.911Z</time></trkpt><trkpt lat="43.7711317" lon="11.2490783"><ele>57.0</ele><time>2026-04-09T16:34:19.911Z</time></trkpt><trkpt lat="43.7711483" lon="11.2491867"><ele>57.0</ele><time>2026-04-09T16:34:21.911Z</time></trkpt><trkpt lat="43.7711717" lon="11.2492833"><ele>57.0</ele><time>2026-04-09T16:34:23.911Z</time></trkpt><trkpt lat="43.7711783" lon="11.2493933"><ele>57.0</ele><time>2026-04-09T16:34:25.911Z</time></trkpt><trkpt lat="43.7711983" lon="11.249495"><ele>57.0</ele><time>2026-04-09T16:34:27.911Z</time></trkpt><trkpt lat="43.7712317" lon="11.249605"><ele>57.0</ele><time>2026-04-09T16:34:29.911Z</time></trkpt><trkpt lat="43.7712517" lon="11.24971"><ele>57.0</ele><time>2026-04-09T16:34:31.91Z</time></trkpt><trkpt lat="43.7712883" lon="11.24984"><ele>57.0</ele><time>2026-04-09T16:34:34.91Z</time></trkpt><trkpt lat="43.77131" lon="11.2499383"><ele>57.0</ele><time>2026-04-09T16:34:36.91Z</time></trkpt><trkpt lat="43.7713317" lon="11.2500267"><ele>57.0</ele><time>2026-04-09T16:34:38.91Z</time></trkpt><trkpt lat="43.7713367" lon="11.2501267"><ele>57.0</ele><time>2026-04-09T16:34:40.91Z</time></trkpt><trkpt lat="43.7713533" lon="11.2502367"><ele>57.0</ele><time>2026-04-09T16:34:42.91Z</time></trkpt><trkpt lat="43.771365" lon="11.25037"><ele>57.0</ele><time>2026-04-09T16:34:44.91Z</time></trkpt><trkpt lat="43.771375" lon="11.2504833"><ele>57.0</ele><time>2026-04-09T16:34:46.91Z</time></trkpt><trkpt lat="43.7713767" lon="11.2505917"><ele>57.0</ele><time>2026-04-09T16:34:48.91Z</time></trkpt><trkpt lat="43.7713833" lon="11.2507167"><ele>57.0</ele><time>2026-04-09T16:34:50.91Z</time></trkpt><trkpt lat="43.7714067" lon="11.2508333"><ele>57.0</ele><time>2026-04-09T16:34:52.911Z</time></trkpt><trkpt lat="43.771445" lon="11.25091"><ele>57.0</ele><time>2026-04-09T16:34:54.911Z</time></trkpt><trkpt lat="43.7714833" lon="11.2510067"><ele>57.0</ele><time>2026-04-09T16:34:57.91Z</time></trkpt><trkpt lat="43.771495" lon="11.2510983"><ele>58.0</ele><time>2026-04-09T16:34:59.91Z</time></trkpt><trkpt lat="43.771485" lon="11.2512017"><ele>59.0</ele><time>2026-04-09T16:35:01.911Z</time></trkpt><trkpt lat="43.7714833" lon="11.2513133"><ele>60.0</ele><time>2026-04-09T16:35:04.91Z</time></trkpt><trkpt lat="43.7714883" lon="11.25143"><ele>61.0</ele><time>2026-04-09T16:35:08.911Z</time></trkpt><trkpt lat="43.771495" lon="11.25152"><ele>62.0</ele><time>2026-04-09T16:35:10.91Z</time></trkpt><trkpt lat="43.7715017" lon="11.25163"><ele>63.0</ele><time>2026-04-09T16:35:12.91Z</time></trkpt><trkpt lat="43.771515" lon="11.25174"><ele>63.166666666666664</ele><time>2026-04-09T16:35:14.911Z</time></trkpt><trkpt lat="43.771525" lon="11.2518517"><ele>63.33333333333333</ele><time>2026-04-09T16:35:16.91Z</time></trkpt><trkpt lat="43.771525" lon="11.2519567"><ele>63.5</ele><time>2026-04-09T16:35:18.91Z</time></trkpt><trkpt lat="43.7715383" lon="11.2520433"><ele>63.666666666666664</ele><time>2026-04-09T16:35:20.91Z</time></trkpt><trkpt lat="43.7715083" lon="11.2521667"><ele>63.83333333333333</ele><time>2026-04-09T16:35:23.91Z</time></trkpt><trkpt lat="43.7714933" lon="11.2522567"><ele>64.0</ele><time>2026-04-09T16:35:25.91Z</time></trkpt><trkpt lat="43.771485" lon="11.25235"><ele>63.99999999999999</ele><time>2026-04-09T16:35:27.91Z</time></trkpt><trkpt lat="43.7714867" lon="11.25245"><ele>64.0</ele><time>2026-04-09T16:35:29.91Z</time></trkpt><trkpt lat="43.7714883" lon="11.25256"><ele>64.0</ele><time>2026-04-09T16:35:31.911Z</time></trkpt><trkpt lat="43.7715" lon="11.2526617"><ele>64.0</ele><time>2026-04-09T16:35:33.91Z</time></trkpt><trkpt lat="43.7714967" lon="11.2527617"><ele>63.99999999999999</ele><time>2026-04-09T16:35:35.91Z</time></trkpt><trkpt lat="43.7715017" lon="11.2528667"><ele>64.0</ele><time>2026-04-09T16:35:37.91Z</time></trkpt><trkpt lat="43.771505" lon="11.2529717"><ele>63.99999999999999</ele><time>2026-04-09T16:35:39.911Z</time></trkpt><trkpt lat="43.771495" lon="11.25309"><ele>64.0</ele><time>2026-04-09T16:35:41.911Z</time></trkpt><trkpt lat="43.771485" lon="11.2531967"><ele>64.0</ele><time>2026-04-09T16:35:43.91Z</time></trkpt><trkpt lat="43.77148" lon="11.25332"><ele>64.0</ele><time>2026-04-09T16:35:46.91Z</time></trkpt><trkpt lat="43.77146" lon="11.2534233"><ele>63.99999999999999</ele><time>2026-04-09T16:35:49.91Z</time></trkpt><trkpt lat="43.7714933" lon="11.2535283"><ele>64.0</ele><time>2026-04-09T16:35:52.91Z</time></trkpt><trkpt lat="43.7715417" lon="11.2536033"><ele>63.99999999999999</ele><time>2026-04-09T16:35:55.91Z</time></trkpt><trkpt lat="43.7716117" lon="11.2536233"><ele>64.0</ele><time>2026-04-09T16:35:58.91Z</time></trkpt><trkpt lat="43.771695" lon="11.2536133"><ele>64.0</ele><time>2026-04-09T16:36:01.911Z</time></trkpt><trkpt lat="43.77178" lon="11.25362"><ele>64.0</ele><time>2026-04-09T16:36:04.91Z</time></trkpt><trkpt lat="43.7718433" lon="11.2536067"><ele>63.99999999999999</ele><time>2026-04-09T16:36:07.911Z</time></trkpt><trkpt lat="43.7719217" lon="11.2536133"><ele>64.0</ele><time>2026-04-09T16:36:12.911Z</time></trkpt><trkpt lat="43.7719867" lon="11.2535867"><ele>63.99999999999999</ele><time>2026-04-09T16:36:15.91Z</time></trkpt><trkpt lat="43.77207" lon="11.2535867"><ele>64.0</ele><time>2026-04-09T16:36:18.911Z</time></trkpt><trkpt lat="43.7721267" lon="11.2536783"><ele>64.0</ele><time>2026-04-09T16:36:21.91Z</time></trkpt><trkpt lat="43.772135" lon="11.2538117"><ele>64.0</ele><time>2026-04-09T16:36:24.91Z</time></trkpt><trkpt lat="43.7721367" lon="11.2539183"><ele>63.99999999999999</ele><time>2026-04-09T16:36:26.911Z</time></trkpt><trkpt lat="43.772145" lon="11.25402"><ele>64.0</ele><time>2026-04-09T16:36:28.91Z</time></trkpt><trkpt lat="43.772165" lon="11.2541183"><ele>63.83333333333333</ele><time>2026-04-09T16:36:30.911Z</time></trkpt><trkpt lat="43.772185" lon="11.25423"><ele>63.666666666666664</ele><time>2026-04-09T16:36:33.91Z</time></trkpt><trkpt lat="43.7722017" lon="11.2543433"><ele>63.5</ele><time>2026-04-09T16:36:37.91Z</time></trkpt><trkpt lat="43.7721783" lon="11.2544433"><ele>63.33333333333333</ele><time>2026-04-09T16:36:41.91Z</time></trkpt><trkpt lat="43.7721867" lon="11.2545417"><ele>63.166666666666664</ele><time>2026-04-09T16:36:44.91Z</time></trkpt><trkpt lat="43.7721917" lon="11.2546567"><ele>63.0</ele><time>2026-04-09T16:36:47.911Z</time></trkpt><trkpt lat="43.7721733" lon="11.25478"><ele>63.333333333333336</ele><time>2026-04-09T16:36:50.911Z</time></trkpt><trkpt lat="43.7721933" lon="11.2549017"><ele>63.66666666666667</ele><time>2026-04-09T16:36:53.91Z</time></trkpt><trkpt lat="43.7722" lon="11.2550217"><ele>64.0</ele><time>2026-04-09T16:36:56.91Z</time></trkpt><trkpt lat="43.772195" lon="11.25514"><ele>64.33333333333334</ele><time>2026-04-09T16:36:59.91Z</time></trkpt><trkpt lat="43.7722033" lon="11.2552283"><ele>64.66666666666667</ele><time>2026-04-09T16:37:02.91Z</time></trkpt><trkpt lat="43.7722" lon="11.255335"><ele>65.0</ele><time>2026-04-09T16:37:09.91Z</time></trkpt><trkpt lat="43.772205" lon="11.25543"><ele>65.0</ele><time>2026-04-09T16:37:13.91Z</time></trkpt><trkpt lat="43.7722017" lon="11.2555433"><ele>65.0</ele><time>2026-04-09T16:37:16.91Z</time></trkpt><trkpt lat="43.7722233" lon="11.2556367"><ele>65.0</ele><time>2026-04-09T16:37:19.91Z</time></trkpt><trkpt lat="43.7722567" lon="11.2557333"><ele>65.0</ele><time>2026-04-09T16:37:23.91Z</time></trkpt><trkpt lat="43.7723017" lon="11.2558117"><ele>65.0</ele><time>2026-04-09T16:37:27.911Z</time></trkpt><trkpt lat="43.77239" lon="11.2558433"><ele>65.0</ele><time>2026-04-09T16:37:32.91Z</time></trkpt><trkpt lat="43.772535" lon="11.2558117"><ele>65.85714285714286</ele><time>2026-04-09T16:37:35.911Z</time></trkpt><trkpt lat="43.7726083" lon="11.2557933"><ele>66.71428571428572</ele><time>2026-04-09T16:37:37.91Z</time></trkpt><trkpt lat="43.77267" lon="11.255875"><ele>67.57142857142857</ele><time>2026-04-09T16:37:40.91Z</time></trkpt><trkpt lat="43.772685" lon="11.2559767"><ele>68.42857142857143</ele><time>2026-04-09T16:37:43.91Z</time></trkpt><trkpt lat="43.7726933" lon="11.25609"><ele>69.28571428571428</ele><time>2026-04-09T16:37:48.91Z</time></trkpt><trkpt lat="43.7726967" lon="11.2561783"><ele>70.14285714285714</ele><time>2026-04-09T16:37:51.91Z</time></trkpt><trkpt lat="43.7726983" lon="11.2562717"><ele>71.0</ele><time>2026-04-09T16:37:54.909Z</time></trkpt><trkpt lat="43.7727017" lon="11.25636"><ele>70.5</ele><time>2026-04-09T16:37:57.909Z</time></trkpt><trkpt lat="43.772705" lon="11.2564717"><ele>70.0</ele><time>2026-04-09T16:38:00.909Z</time></trkpt><trkpt lat="43.77271" lon="11.2565983"><ele>69.5</ele><time>2026-04-09T16:38:03.909Z</time></trkpt><trkpt lat="43.772705" lon="11.2567233"><ele>69.0</ele><time>2026-04-09T16:38:06.909Z</time></trkpt><trkpt lat="43.77267" lon="11.2568367"><ele>68.5</ele><time>2026-04-09T16:38:09.909Z</time></trkpt><trkpt lat="43.7726583" lon="11.2569233"><ele>68.0</ele><time>2026-04-09T16:38:11.909Z</time></trkpt><trkpt lat="43.77265" lon="11.2570133"><ele>68.0</ele><time>2026-04-09T16:38:13.909Z</time></trkpt><trkpt lat="43.7726817" lon="11.2571217"><ele>68.0</ele><time>2026-04-09T16:38:15.91Z</time></trkpt><trkpt lat="43.7727233" lon="11.2572"><ele>68.0</ele><time>2026-04-09T16:38:17.909Z</time></trkpt><trkpt lat="43.772765" lon="11.2572667"><ele>68.0</ele><time>2026-04-09T16:38:19.909Z</time></trkpt><trkpt lat="43.772825" lon="11.257355"><ele>68.0</ele><time>2026-04-09T16:38:22.909Z</time></trkpt><trkpt lat="43.772875" lon="11.2574233"><ele>68.0</ele><time>2026-04-09T16:38:25.909Z</time></trkpt><trkpt lat="43.7729317" lon="11.2574933"><ele>67.83333333333334</ele><time>2026-04-09T16:38:28.909Z</time></trkpt><trkpt lat="43.77299" lon="11.2575683"><ele>67.66666666666667</ele><time>2026-04-09T16:38:31.909Z</time></trkpt><trkpt lat="43.7730433" lon="11.2576183"><ele>67.5</ele><time>2026-04-09T16:38:34.909Z</time></trkpt><trkpt lat="43.77313" lon="11.2576067"><ele>67.33333333333333</ele><time>2026-04-09T16:38:38.909Z</time></trkpt><trkpt lat="43.7731917" lon="11.2575433"><ele>67.16666666666666</ele><time>2026-04-09T16:38:41.909Z</time></trkpt><trkpt lat="43.773245" lon="11.2574633"><ele>67.0</ele><time>2026-04-09T16:38:44.909Z</time></trkpt><trkpt lat="43.7732967" lon="11.257375"><ele>67.0</ele><time>2026-04-09T16:38:47.909Z</time></trkpt><trkpt lat="43.7733633" lon="11.2573"><ele>67.0</ele><time>2026-04-09T16:38:50.909Z</time></trkpt><trkpt lat="43.7734267" lon="11.2572283"><ele>67.0</ele><time>2026-04-09T16:38:53.909Z</time></trkpt><trkpt lat="43.7734833" lon="11.25719"><ele>67.0</ele><time>2026-04-09T16:38:56.91Z</time></trkpt><trkpt lat="43.7735367" lon="11.257255"><ele>67.0</ele><time>2026-04-09T16:39:03.91Z</time></trkpt><trkpt lat="43.7735917" lon="11.25732"><ele>67.0</ele><time>2026-04-09T16:39:05.909Z</time></trkpt><trkpt lat="43.773645" lon="11.2573883"><ele>67.0</ele><time>2026-04-09T16:39:07.909Z</time></trkpt><trkpt lat="43.7737233" lon="11.2574717"><ele>66.16666666666666</ele><time>2026-04-09T16:39:10.909Z</time></trkpt><trkpt lat="43.7737933" lon="11.25753"><ele>65.33333333333333</ele><time>2026-04-09T16:39:12.909Z</time></trkpt><trkpt lat="43.77387" lon="11.2575767"><ele>64.5</ele><time>2026-04-09T16:39:14.909Z</time></trkpt><trkpt lat="43.7739317" lon="11.2576367"><ele>63.66666666666667</ele><time>2026-04-09T16:39:16.909Z</time></trkpt><trkpt lat="43.774015" lon="11.2576767"><ele>62.833333333333336</ele><time>2026-04-09T16:39:19.909Z</time></trkpt><trkpt lat="43.77408" lon="11.257755"><ele>62.0</ele><time>2026-04-09T16:39:22.91Z</time></trkpt><trkpt lat="43.7741317" lon="11.25786"><ele>62.0</ele><time>2026-04-09T16:39:25.909Z</time></trkpt><trkpt lat="43.7741783" lon="11.2579267"><ele>62.00000000000001</ele><time>2026-04-09T16:39:27.91Z</time></trkpt><trkpt lat="43.774245" lon="11.25798"><ele>62.0</ele><time>2026-04-09T16:39:29.909Z</time></trkpt><trkpt lat="43.7743" lon="11.2580517"><ele>62.0</ele><time>2026-04-09T16:39:31.91Z</time></trkpt><trkpt lat="43.774355" lon="11.2581367"><ele>62.00000000000001</ele><time>2026-04-09T16:39:34.909Z</time></trkpt><trkpt lat="43.774395" lon="11.2582067"><ele>62.0</ele><time>2026-04-09T16:39:36.909Z</time></trkpt><trkpt lat="43.7744433" lon="11.2582683"><ele>62.0</ele><time>2026-04-09T16:39:38.909Z</time></trkpt><trkpt lat="43.774485" lon="11.2583367"><ele>61.66666666666667</ele><time>2026-04-09T16:39:40.91Z</time></trkpt><trkpt lat="43.7745483" lon="11.2584083"><ele>61.333333333333336</ele><time>2026-04-09T16:39:43.909Z</time></trkpt><trkpt lat="43.7746117" lon="11.2584933"><ele>61.0</ele><time>2026-04-09T16:39:46.91Z</time></trkpt><trkpt lat="43.7746767" lon="11.2585817"><ele>60.66666666666667</ele><time>2026-04-09T16:39:49.91Z</time></trkpt><trkpt lat="43.7747267" lon="11.2586383"><ele>60.333333333333336</ele><time>2026-04-09T16:39:51.909Z</time></trkpt><trkpt lat="43.77479" lon="11.2586783"><ele>60.0</ele><time>2026-04-09T16:39:53.909Z</time></trkpt><trkpt lat="43.7748533" lon="11.258735"><ele>60.0</ele><time>2026-04-09T16:39:55.909Z</time></trkpt><trkpt lat="43.77492" lon="11.2587767"><ele>60.0</ele><time>2026-04-09T16:39:57.909Z</time></trkpt><trkpt lat="43.7749817" lon="11.2588467"><ele>60.0</ele><time>2026-04-09T16:39:59.91Z</time></trkpt><trkpt lat="43.7750367" lon="11.25891"><ele>60.0</ele><time>2026-04-09T16:40:01.909Z</time></trkpt><trkpt lat="43.77508" lon="11.25898"><ele>60.0</ele><time>2026-04-09T16:40:03.909Z</time></trkpt><trkpt lat="43.775125" lon="11.2590617"><ele>60.0</ele><time>2026-04-09T16:40:05.91Z</time></trkpt><trkpt lat="43.7751717" lon="11.25913"><ele>60.0</ele><time>2026-04-09T16:40:07.909Z</time></trkpt><trkpt lat="43.7752167" lon="11.2591967"><ele>60.0</ele><time>2026-04-09T16:40:09.909Z</time></trkpt><trkpt lat="43.7752667" lon="11.2592733"><ele>60.0</ele><time>2026-04-09T16:40:11.909Z</time></trkpt><trkpt lat="43.77532" lon="11.2593283"><ele>60.0</ele><time>2026-04-09T16:40:13.909Z</time></trkpt><trkpt lat="43.7753683" lon="11.2593933"><ele>60.0</ele><time>2026-04-09T16:40:15.909Z</time></trkpt><trkpt lat="43.7754183" lon="11.2594533"><ele>60.0</ele><time>2026-04-09T16:40:17.91Z</time></trkpt><trkpt lat="43.7754667" lon="11.2595167"><ele>60.0</ele><time>2026-04-09T16:40:19.909Z</time></trkpt><trkpt lat="43.7755333" lon="11.2595817"><ele>60.0</ele><time>2026-04-09T16:40:22.909Z</time></trkpt><trkpt lat="43.7755867" lon="11.259655"><ele>60.0</ele><time>2026-04-09T16:40:25.909Z</time></trkpt><trkpt lat="43.7756283" lon="11.25975"><ele>60.0</ele><time>2026-04-09T16:40:28.91Z</time></trkpt><trkpt lat="43.7755917" lon="11.25985"><ele>60.0</ele><time>2026-04-09T16:40:33.909Z</time></trkpt><trkpt lat="43.775555" lon="11.2599233"><ele>60.0</ele><time>2026-04-09T16:40:36.909Z</time></trkpt><trkpt lat="43.7755333" lon="11.2600233"><ele>60.0</ele><time>2026-04-09T16:40:39.91Z</time></trkpt><trkpt lat="43.77548" lon="11.26011"><ele>60.0</ele><time>2026-04-09T16:40:42.909Z</time></trkpt><trkpt lat="43.7754333" lon="11.2602217"><ele>60.142857142857146</ele><time>2026-04-09T16:40:45.909Z</time></trkpt><trkpt lat="43.775415" lon="11.2603083"><ele>60.28571428571428</ele><time>2026-04-09T16:40:47.909Z</time></trkpt><trkpt lat="43.7753717" lon="11.26041"><ele>60.42857142857142</ele><time>2026-04-09T16:40:50.909Z</time></trkpt><trkpt lat="43.7753433" lon="11.26049"><ele>60.57142857142857</ele><time>2026-04-09T16:40:52.909Z</time></trkpt><trkpt lat="43.7753083" lon="11.2605733"><ele>60.71428571428571</ele><time>2026-04-09T16:40:54.909Z</time></trkpt><trkpt lat="43.7752683" lon="11.2606467"><ele>60.85714285714285</ele><time>2026-04-09T16:40:56.909Z</time></trkpt><trkpt lat="43.7752333" lon="11.2607267"><ele>60.99999999999999</ele><time>2026-04-09T16:40:58.91Z</time></trkpt><trkpt lat="43.7751983" lon="11.26082"><ele>59.83333333333333</ele><time>2026-04-09T16:41:00.909Z</time></trkpt><trkpt lat="43.7751733" lon="11.2609017"><ele>58.666666666666664</ele><time>2026-04-09T16:41:02.91Z</time></trkpt><trkpt lat="43.7751167" lon="11.2609983"><ele>57.5</ele><time>2026-04-09T16:41:05.909Z</time></trkpt><trkpt lat="43.7750817" lon="11.2611017"><ele>56.33333333333333</ele><time>2026-04-09T16:41:07.91Z</time></trkpt><trkpt lat="43.7750483" lon="11.2612167"><ele>55.166666666666664</ele><time>2026-04-09T16:41:09.909Z</time></trkpt><trkpt lat="43.775015" lon="11.261315"><ele>54.0</ele><time>2026-04-09T16:41:11.909Z</time></trkpt><trkpt lat="43.7749733" lon="11.2614033"><ele>54.0</ele><time>2026-04-09T16:41:13.908Z</time></trkpt><trkpt lat="43.774935" lon="11.2614867"><ele>54.0</ele><time>2026-04-09T16:41:15.908Z</time></trkpt><trkpt lat="43.774895" lon="11.261575"><ele>54.0</ele><time>2026-04-09T16:41:17.909Z</time></trkpt><trkpt lat="43.774835" lon="11.2616783"><ele>54.0</ele><time>2026-04-09T16:41:20.908Z</time></trkpt><trkpt lat="43.77479" lon="11.2617617"><ele>54.0</ele><time>2026-04-09T16:41:22.908Z</time></trkpt><trkpt lat="43.7747467" lon="11.261845"><ele>54.0</ele><time>2026-04-09T16:41:24.909Z</time></trkpt><trkpt lat="43.7747033" lon="11.2619267"><ele>54.0</ele><time>2026-04-09T16:41:26.908Z</time></trkpt><trkpt lat="43.77467" lon="11.262005"><ele>54.0</ele><time>2026-04-09T16:41:28.909Z</time></trkpt><trkpt lat="43.7746167" lon="11.26211"><ele>54.0</ele><time>2026-04-09T16:41:31.908Z</time></trkpt><trkpt lat="43.7745783" lon="11.26218"><ele>54.0</ele><time>2026-04-09T16:41:33.908Z</time></trkpt><trkpt lat="43.7745217" lon="11.2622683"><ele>54.0</ele><time>2026-04-09T16:41:36.909Z</time></trkpt><trkpt lat="43.7745183" lon="11.26237"><ele>54.0</ele><time>2026-04-09T16:41:40.908Z</time></trkpt><trkpt lat="43.7745567" lon="11.2624417"><ele>54.0</ele><time>2026-04-09T16:41:44.909Z</time></trkpt><trkpt lat="43.7746867" lon="11.2624483"><ele>54.400000000000006</ele><time>2026-04-09T16:43:50.908Z</time></trkpt><trkpt lat="43.7746033" lon="11.2623933"><ele>54.800000000000004</ele><time>2026-04-09T16:46:19.907Z</time></trkpt><trkpt lat="43.77449" lon="11.2623917"><ele>55.199999999999996</ele><time>2026-04-09T16:46:28.907Z</time></trkpt><trkpt lat="43.7744117" lon="11.2624217"><ele>55.599999999999994</ele><time>2026-04-09T16:46:33.907Z</time></trkpt><trkpt lat="43.774365" lon="11.2624911"><ele>56.0</ele><time>2026-04-09T16:46:39.908Z</time></trkpt><trkpt lat="43.7743344" lon="11.2626602"><ele>56.14285714285714</ele><time>2026-04-09T16:46:57.907Z</time></trkpt><trkpt lat="43.7742796" lon="11.2627312"><ele>56.285714285714285</ele><time>2026-04-09T16:47:01.907Z</time></trkpt><trkpt lat="43.7742228" lon="11.2627974"><ele>56.42857142857143</ele><time>2026-04-09T16:47:05.907Z</time></trkpt><trkpt lat="43.774164" lon="11.2628736"><ele>56.57142857142857</ele><time>2026-04-09T16:47:12.907Z</time></trkpt><trkpt lat="43.7741447" lon="11.2629726"><ele>56.71428571428571</ele><time>2026-04-09T16:47:21.907Z</time></trkpt><trkpt lat="43.7740671" lon="11.2630022"><ele>56.857142857142854</ele><time>2026-04-09T16:47:39.906Z</time></trkpt><trkpt lat="43.7740039" lon="11.2629957"><ele>57.0</ele><time>2026-04-09T16:47:46.425Z</time></trkpt><trkpt lat="43.7741" lon="11.2629354"><ele>57.0</ele><time>2026-04-09T16:47:59.365Z</time></trkpt></trkseg></trk></gpx>